Time,TemperatureF,DewpointF,PressureIn,WindDirection,WindDirectionDegrees,WindSpeedMPH,WindSpeedGustMPH,Humidity,HourlyPrecipIn,Conditions,Clouds,dailyrainin,SoftwareType,DateUTC
2013-04-08 00:00:00,53.4,28.4,30.11,North,4,0.0,0.0,38,0.00,CLR,,0.00,WeatherDisplay:10.37,2013-04-08 04:00:00,
2013-04-08 00:05:00,54.6,28.2,30.11,North,4,0.0,0.0,36,0.00,CLR,,0.00,WeatherDisplay:10.37,2013-04-08 04:05:00,
2013-04-08 00:08:00,53.3,27.7,30.11,North,4,0.0,0.0,37,0.00,CLR,,0.00,WeatherDisplay:10.37,2013-04-08 04:08:00,
2013-04-08 00:10:00,54.2,29.1,30.11,North,4,0.0,0.0,38,0.00,CLR,,0.00,WeatherDisplay:10.37,2013-04-08 04:10:00,
2013-04-08 00:13:00,53.5,29.1,30.11,North,4,0.0,0.0,39,0.00,CLR,,0.00,WeatherDisplay:10.37,2013-04-08 04:13:00,
2013-04-08 00:15:00,53.0,29.3,30.11,North,4,0.0,0.0,40,0.00,CLR,,0.00,WeatherDisplay:10.37,2013-04-08 04:15:00,
2013-04-08 00:18:00,52.4,28.8,30.11,North,4,0.0,0.0,40,0.00,CLR,,0.00,WeatherDisplay:10.37,2013-04-08 04:18:00,
2013-04-08 00:20:00,52.7,29.6,30.11,North,4,0.0,0.0,41,0.00,CLR,,0.00,WeatherDisplay:10.37,2013-04-08 04:20:00,
2013-04-08 00:21:00,52.4,29.4,30.11,North,4,0.0,0.0,41,0.00,CLR,,0.00,WeatherDisplay:10.37,2013-04-08 04:21:00,
2013-04-08 00:23:00,52.0,29.0,30.11,North,4,0.0,0.0,41,0.00,CLR,,0.00,WeatherDisplay:10.37,2013-04-08 04:23:00,
2013-04-08 00:25:00,52.7,29.0,30.11,North,4,0.0,0.0,40,0.00,CLR,,0.00,WeatherDisplay:10.37,2013-04-08 04:25:00,
2013-04-08 00:26:00,53.3,29.6,30.11,North,4,0.0,0.0,40,0.00,CLR,,0.00,WeatherDisplay:10.37,2013-04-08 04:26:00,
2013-04-08 00:29:00,52.7,29.0,30.11,North,4,0.0,0.0,40,0.00,CLR,,0.00,WeatherDisplay:10.37,2013-04-08 04:29:00,
2013-04-08 00:31:00,52.9,29.8,30.11,North,4,0.0,0.0,41,0.00,CLR,,0.00,WeatherDisplay:10.37,2013-04-08 04:31:00,
2013-04-08 00:32:00,52.2,29.2,30.11,North,4,0.0,0.0,41,0.00,CLR,,0.00,WeatherDisplay:10.37,2013-04-08 04:32:00,
2013-04-08 00:35:00,52.8,29.7,30.11,North,4,0.0,0.0,41,0.00,CLR,,0.00,WeatherDisplay:10.37,2013-04-08 04:35:00,
2013-04-08 00:36:00,53.1,30.0,30.11,North,4,0.0,0.0,41,0.00,CLR,,0.00,WeatherDisplay:10.37,2013-04-08 04:36:00,
2013-04-08 00:37:00,52.8,29.7,30.11,North,4,0.0,0.0,41,0.00,CLR,,0.00,WeatherDisplay:10.37,2013-04-08 04:37:00,
2013-04-08 00:40:00,52.8,29.7,30.11,North,4,0.0,0.0,41,0.00,CLR,,0.00,WeatherDisplay:10.37,2013-04-08 04:40:00,
2013-04-08 00:42:00,52.2,29.2,30.11,North,4,0.0,0.0,41,0.00,CLR,,0.00,WeatherDisplay:10.37,2013-04-08 04:42:00,
2013-04-08 00:44:00,53.0,29.9,30.11,North,4,0.0,0.0,41,0.00,CLR,,0.00,WeatherDisplay:10.37,2013-04-08 04:44:00,
2013-04-08 00:45:00,51.8,28.8,30.11,North,4,0.0,0.0,41,0.00,CLR,,0.00,WeatherDisplay:10.37,2013-04-08 04:45:00,
2013-04-08 00:47:00,51.9,29.5,30.11,North,4,0.0,0.0,42,0.00,CLR,,0.00,WeatherDisplay:10.37,2013-04-08 04:47:00,
2013-04-08 00:49:00,51.7,29.3,30.11,North,4,0.0,0.0,42,0.00,CLR,,0.00,WeatherDisplay:10.37,2013-04-08 04:49:00,
2013-04-08 00:50:00,51.9,29.5,30.11,North,4,0.0,0.0,42,0.00,CLR,,0.00,WeatherDisplay:10.37,2013-04-08 04:50:00,
2013-04-08 00:52:00,52.9,30.4,30.11,North,4,0.0,0.0,42,0.00,CLR,,0.00,WeatherDisplay:10.37,2013-04-08 04:52:00,
2013-04-08 00:54:00,52.0,29.6,30.10,North,4,0.0,0.0,42,0.00,CLR,,0.00,WeatherDisplay:10.37,2013-04-08 04:54:00,
2013-04-08 00:55:00,52.8,30.3,30.10,North,4,0.0,0.0,42,0.00,CLR,,0.00,WeatherDisplay:10.37,2013-04-08 04:55:00,
2013-04-08 00:57:00,53.1,30.0,30.10,North,4,0.0,0.0,41,0.00,CLR,,0.00,WeatherDisplay:10.37,2013-04-08 04:57:00,
2013-04-08 01:00:00,52.2,29.2,30.10,North,4,0.0,0.0,41,0.00,CLR,,0.00,WeatherDisplay:10.37,2013-04-08 05:00:00,
2013-04-08 01:03:00,52.2,29.2,30.10,North,4,0.0,0.0,41,0.00,CLR,,0.00,WeatherDisplay:10.37,2013-04-08 05:03:00,
2013-04-08 01:05:00,51.4,28.5,30.10,North,4,0.0,0.0,41,0.00,CLR,,0.00,WeatherDisplay:10.37,2013-04-08 05:05:00,
2013-04-08 01:06:00,52.2,29.8,30.10,North,4,0.0,0.0,42,0.00,CLR,,0.00,WeatherDisplay:10.37,2013-04-08 05:06:00,
2013-04-08 01:08:00,51.1,30.5,30.10,North,4,0.0,0.0,45,0.00,CLR,,0.00,WeatherDisplay:10.37,2013-04-08 05:08:00,
2013-04-08 01:10:00,51.5,31.9,30.10,North,4,0.0,0.0,47,0.00,CLR,,0.00,WeatherDisplay:10.37,2013-04-08 05:10:00,
2013-04-08 01:11:00,51.4,31.8,30.10,North,4,0.0,0.0,47,0.00,CLR,,0.00,WeatherDisplay:10.37,2013-04-08 05:11:00,
2013-04-08 01:13:00,51.1,31.6,30.10,North,4,0.0,0.0,47,0.00,CLR,,0.00,WeatherDisplay:10.37,2013-04-08 05:13:00,
2013-04-08 01:15:00,51.1,33.1,30.11,North,4,0.0,0.0,50,0.00,CLR,,0.00,WeatherDisplay:10.37,2013-04-08 05:15:00,
2013-04-08 01:16:00,50.9,32.9,30.11,North,4,0.0,0.0,50,0.00,CLR,,0.00,WeatherDisplay:10.37,2013-04-08 05:16:00,
2013-04-08 01:18:00,50.8,33.8,30.11,North,4,0.0,0.0,52,0.00,CLR,,0.00,WeatherDisplay:10.37,2013-04-08 05:18:00,
2013-04-08 01:20:00,51.0,34.0,30.11,North,4,0.0,0.0,52,0.00,CLR,,0.00,WeatherDisplay:10.37,2013-04-08 05:20:00,
2013-04-08 01:21:00,51.1,33.6,30.11,North,4,0.0,0.0,51,0.00,CLR,,0.00,WeatherDisplay:10.37,2013-04-08 05:21:00,
2013-04-08 01:22:00,50.7,32.7,30.11,North,4,0.0,0.0,50,0.00,CLR,,0.00,WeatherDisplay:10.37,2013-04-08 05:22:00,
2013-04-08 01:23:00,51.3,33.3,30.11,North,4,0.0,0.0,50,0.00,CLR,,0.00,WeatherDisplay:10.37,2013-04-08 05:23:00,
2013-04-08 01:25:00,50.5,32.5,30.11,North,4,0.0,0.0,50,0.00,CLR,,0.00,WeatherDisplay:10.37,2013-04-08 05:25:00,
2013-04-08 01:26:00,51.4,33.4,30.11,North,4,0.0,0.0,50,0.00,CLR,,0.00,WeatherDisplay:10.37,2013-04-08 05:26:00,
2013-04-08 01:27:00,51.6,33.6,30.11,North,4,0.0,0.0,50,0.00,CLR,,0.00,WeatherDisplay:10.37,2013-04-08 05:27:00,
2013-04-08 01:28:00,51.2,33.2,30.11,North,4,0.0,0.0,50,0.00,CLR,,0.00,WeatherDisplay:10.37,2013-04-08 05:28:00,
2013-04-08 01:30:00,50.9,32.4,30.11,North,4,0.0,0.0,49,0.00,CLR,,0.00,WeatherDisplay:10.37,2013-04-08 05:30:00,
2013-04-08 01:32:00,50.8,32.3,30.11,North,4,0.0,0.0,49,0.00,CLR,,0.00,WeatherDisplay:10.37,2013-04-08 05:32:00,
2013-04-08 01:33:00,50.8,32.3,30.11,North,4,0.0,0.0,49,0.00,CLR,,0.00,WeatherDisplay:10.37,2013-04-08 05:33:00,
2013-04-08 01:36:00,51.1,32.6,30.11,North,4,0.0,0.0,49,0.00,CLR,,0.00,WeatherDisplay:10.37,2013-04-08 05:36:00,
2013-04-08 01:37:00,50.5,32.0,30.11,North,4,0.0,0.0,49,0.00,CLR,,0.00,WeatherDisplay:10.37,2013-04-08 05:37:00,
2013-04-08 01:38:00,51.1,32.6,30.11,North,4,0.0,0.0,49,0.00,CLR,,0.00,WeatherDisplay:10.37,2013-04-08 05:38:00,
2013-04-08 01:42:00,51.0,32.0,30.11,North,4,0.0,0.0,48,0.00,CLR,,0.00,WeatherDisplay:10.37,2013-04-08 05:42:00,
2013-04-08 01:43:00,51.0,32.0,30.11,North,4,0.0,0.0,48,0.00,CLR,,0.00,WeatherDisplay:10.37,2013-04-08 05:43:00,
2013-04-08 01:47:00,50.6,33.1,30.11,North,4,0.0,0.0,51,0.00,CLR,,0.00,WeatherDisplay:10.37,2013-04-08 05:47:00,
2013-04-08 01:48:00,50.2,33.7,30.11,North,4,0.0,0.0,53,0.00,CLR,,0.00,WeatherDisplay:10.37,2013-04-08 05:48:00,
2013-04-08 01:49:00,50.7,34.6,30.11,North,4,0.0,0.0,54,0.00,CLR,,0.00,WeatherDisplay:10.37,2013-04-08 05:49:00,
2013-04-08 01:52:00,50.2,34.2,30.11,North,4,0.0,0.0,54,0.00,CLR,,0.00,WeatherDisplay:10.37,2013-04-08 05:52:00,
2013-04-08 01:53:00,50.7,35.1,30.11,North,4,0.0,0.0,55,0.00,CLR,,0.00,WeatherDisplay:10.37,2013-04-08 05:53:00,
2013-04-08 01:54:00,50.0,34.5,30.11,North,4,0.0,0.0,55,0.00,CLR,,0.00,WeatherDisplay:10.37,2013-04-08 05:54:00,
2013-04-08 01:58:00,50.4,33.9,30.11,North,4,0.0,0.0,53,0.00,CLR,,0.00,WeatherDisplay:10.37,2013-04-08 05:58:00,
2013-04-08 01:59:00,50.5,33.5,30.11,North,4,0.0,0.0,52,0.00,CLR,,0.00,WeatherDisplay:10.37,2013-04-08 05:59:00,
2013-04-08 02:00:00,50.6,33.6,30.11,North,4,0.0,0.0,52,0.00,CLR,,0.00,WeatherDisplay:10.37,2013-04-08 06:00:00,
2013-04-08 02:03:00,50.9,32.9,30.11,North,4,0.0,0.0,50,0.00,CLR,,0.00,WeatherDisplay:10.37,2013-04-08 06:03:00,
2013-04-08 02:04:00,51.8,32.7,30.11,North,4,0.0,0.0,48,0.00,CLR,,0.00,WeatherDisplay:10.37,2013-04-08 06:04:00,
2013-04-08 02:06:00,51.5,31.9,30.11,North,4,0.0,0.0,47,0.00,CLR,,0.00,WeatherDisplay:10.37,2013-04-08 06:06:00,
2013-04-08 02:08:00,51.3,31.2,30.11,North,4,0.0,0.0,46,0.00,CLR,,0.00,WeatherDisplay:10.37,2013-04-08 06:08:00,
2013-04-08 02:09:00,52.0,31.8,30.11,North,4,0.0,0.0,46,0.00,CLR,,0.00,WeatherDisplay:10.37,2013-04-08 06:09:00,
2013-04-08 02:12:00,51.4,30.7,30.11,North,4,0.0,0.0,45,0.00,CLR,,0.00,WeatherDisplay:10.37,2013-04-08 06:12:00,
2013-04-08 02:13:00,52.1,30.8,30.10,North,4,0.0,0.0,44,0.00,CLR,,0.00,WeatherDisplay:10.37,2013-04-08 06:13:00,
2013-04-08 02:15:00,52.6,31.3,30.11,North,4,0.0,0.0,44,0.00,CLR,,0.00,WeatherDisplay:10.37,2013-04-08 06:15:00,
2013-04-08 02:17:00,52.0,30.7,30.11,North,4,0.0,0.0,44,0.00,CLR,,0.00,WeatherDisplay:10.37,2013-04-08 06:17:00,
2013-04-08 02:18:00,51.2,30.0,30.10,North,4,0.0,0.0,44,0.00,CLR,,0.00,WeatherDisplay:10.37,2013-04-08 06:18:00,
2013-04-08 02:19:00,51.8,31.1,30.10,North,4,0.0,0.0,45,0.00,CLR,,0.00,WeatherDisplay:10.37,2013-04-08 06:19:00,
2013-04-08 02:20:00,51.0,30.9,30.10,North,4,0.0,0.0,46,0.00,CLR,,0.00,WeatherDisplay:10.37,2013-04-08 06:20:00,
2013-04-08 02:22:00,50.9,30.8,30.10,North,4,0.0,0.0,46,0.00,CLR,,0.00,WeatherDisplay:10.37,2013-04-08 06:22:00,
2013-04-08 02:23:00,51.2,31.1,30.10,North,4,0.0,0.0,46,0.00,CLR,,0.00,WeatherDisplay:10.37,2013-04-08 06:23:00,
2013-04-08 02:25:00,51.6,30.4,30.10,North,4,0.0,0.0,44,0.00,CLR,,0.00,WeatherDisplay:10.37,2013-04-08 06:25:00,
2013-04-08 02:27:00,51.2,30.0,30.10,North,4,0.0,0.0,44,0.00,CLR,,0.00,WeatherDisplay:10.37,2013-04-08 06:27:00,
2013-04-08 02:28:00,52.3,31.0,30.10,North,4,0.0,0.0,44,0.00,CLR,,0.00,WeatherDisplay:10.37,2013-04-08 06:28:00,
2013-04-08 02:32:00,52.2,30.9,30.10,North,4,0.0,0.0,44,0.00,CLR,,0.00,WeatherDisplay:10.37,2013-04-08 06:32:00,
2013-04-08 02:33:00,51.2,30.0,30.10,North,4,0.0,0.0,44,0.00,CLR,,0.00,WeatherDisplay:10.37,2013-04-08 06:33:00,
2013-04-08 02:37:00,50.7,32.7,30.10,North,4,0.0,0.0,50,0.00,CLR,,0.00,WeatherDisplay:10.37,2013-04-08 06:37:00,
2013-04-08 02:38:00,50.4,32.9,30.10,North,4,0.0,0.0,51,0.00,CLR,,0.00,WeatherDisplay:10.37,2013-04-08 06:38:00,
2013-04-08 02:42:00,50.5,33.0,30.10,North,4,0.0,0.0,51,0.00,CLR,,0.00,WeatherDisplay:10.37,2013-04-08 06:42:00,
2013-04-08 02:43:00,50.6,32.6,30.10,North,4,0.0,0.0,50,0.00,CLR,,0.00,WeatherDisplay:10.37,2013-04-08 06:43:00,
2013-04-08 02:47:00,50.3,34.3,30.10,North,4,0.0,0.0,54,0.00,CLR,,0.00,WeatherDisplay:10.37,2013-04-08 06:47:00,
2013-04-08 02:48:00,50.3,34.3,30.10,North,4,0.0,0.0,54,0.00,CLR,,0.00,WeatherDisplay:10.37,2013-04-08 06:48:00,
2013-04-08 02:49:00,50.3,33.8,30.10,North,4,0.0,0.0,53,0.00,CLR,,0.00,WeatherDisplay:10.37,2013-04-08 06:49:00,
2013-04-08 02:52:00,50.7,32.7,30.10,North,4,0.0,0.0,50,0.00,CLR,,0.00,WeatherDisplay:10.37,2013-04-08 06:52:00,
2013-04-08 02:53:00,50.9,31.9,30.10,North,4,0.0,0.0,48,0.00,CLR,,0.00,WeatherDisplay:10.37,2013-04-08 06:53:00,
2013-04-08 02:54:00,50.9,31.9,30.10,North,4,0.0,0.0,48,0.00,CLR,,0.00,WeatherDisplay:10.37,2013-04-08 06:54:00,
2013-04-08 02:57:00,51.1,32.1,30.10,North,4,0.0,0.0,48,0.00,CLR,,0.00,WeatherDisplay:10.37,2013-04-08 06:57:00,
2013-04-08 02:58:00,50.7,31.7,30.10,North,4,0.0,0.0,48,0.00,CLR,,0.00,WeatherDisplay:10.37,2013-04-08 06:58:00,
2013-04-08 03:00:00,50.7,32.7,30.10,North,4,0.0,0.0,50,0.00,CLR,,0.00,WeatherDisplay:10.37,2013-04-08 07:00:00,
2013-04-08 03:02:00,50.5,32.5,30.09,North,4,0.0,0.0,50,0.00,CLR,,0.00,WeatherDisplay:10.37,2013-04-08 07:02:00,
2013-04-08 03:05:00,50.8,32.8,30.09,North,4,0.0,0.0,50,0.00,CLR,,0.00,WeatherDisplay:10.37,2013-04-08 07:05:00,
2013-04-08 03:06:00,50.1,33.6,30.09,North,4,0.0,0.0,53,0.00,CLR,,0.00,WeatherDisplay:10.37,2013-04-08 07:06:00,
2013-04-08 03:07:00,50.3,34.3,30.09,North,4,0.0,0.0,54,0.00,CLR,,0.00,WeatherDisplay:10.37,2013-04-08 07:07:00,
2013-04-08 03:10:00,50.0,35.8,30.09,North,4,0.0,0.0,58,0.00,CLR,,0.00,WeatherDisplay:10.37,2013-04-08 07:10:00,
2013-04-08 03:12:00,50.1,36.3,30.09,North,4,0.0,0.0,59,0.00,CLR,,0.00,WeatherDisplay:10.37,2013-04-08 07:12:00,
2013-04-08 03:15:00,50.0,35.4,30.09,North,4,0.0,0.0,57,0.00,CLR,,0.00,WeatherDisplay:10.37,2013-04-08 07:15:00,
2013-04-08 03:17:00,50.0,35.8,30.09,North,4,0.0,0.0,58,0.00,CLR,,0.00,WeatherDisplay:10.37,2013-04-08 07:17:00,
2013-04-08 03:18:00,50.1,35.9,30.09,North,4,0.0,0.0,58,0.00,CLR,,0.00,WeatherDisplay:10.37,2013-04-08 07:18:00,
2013-04-08 03:20:00,50.1,35.9,30.09,North,4,0.0,0.0,58,0.00,CLR,,0.00,WeatherDisplay:10.37,2013-04-08 07:20:00,
2013-04-08 03:22:00,50.1,35.4,30.10,North,4,0.0,0.0,57,0.00,CLR,,0.00,WeatherDisplay:10.37,2013-04-08 07:22:00,
2013-04-08 03:23:00,50.1,35.4,30.10,North,4,0.0,0.0,57,0.00,CLR,,0.00,WeatherDisplay:10.37,2013-04-08 07:23:00,
2013-04-08 03:25:00,50.0,35.4,30.10,North,4,0.0,0.0,57,0.00,CLR,,0.00,WeatherDisplay:10.37,2013-04-08 07:25:00,
2013-04-08 03:27:00,50.2,35.1,30.10,North,4,0.0,0.0,56,0.00,CLR,,0.00,WeatherDisplay:10.37,2013-04-08 07:27:00,
2013-04-08 03:28:00,50.2,35.1,30.10,North,4,0.0,0.0,56,0.00,CLR,,0.00,WeatherDisplay:10.37,2013-04-08 07:28:00,
2013-04-08 03:31:00,49.8,35.6,30.09,North,4,0.0,0.0,58,0.00,CLR,,0.00,WeatherDisplay:10.37,2013-04-08 07:31:00,
2013-04-08 03:32:00,50.0,35.8,30.09,North,4,0.0,0.0,58,0.00,CLR,,0.00,WeatherDisplay:10.37,2013-04-08 07:32:00,
2013-04-08 03:33:00,50.0,35.8,30.09,North,4,0.0,0.0,58,0.00,CLR,,0.00,WeatherDisplay:10.37,2013-04-08 07:33:00,
2013-04-08 03:36:00,50.1,36.3,30.09,North,4,0.0,0.0,59,0.00,CLR,,0.00,WeatherDisplay:10.37,2013-04-08 07:36:00,
2013-04-08 03:37:00,50.1,35.9,30.09,North,4,0.0,0.0,58,0.00,CLR,,0.00,WeatherDisplay:10.37,2013-04-08 07:37:00,
2013-04-08 03:38:00,50.1,35.9,30.09,North,4,0.0,0.0,58,0.00,CLR,,0.00,WeatherDisplay:10.37,2013-04-08 07:38:00,
2013-04-08 03:42:00,50.3,34.7,30.09,North,4,0.0,0.0,55,0.00,CLR,,0.00,WeatherDisplay:10.37,2013-04-08 07:42:00,
2013-04-08 03:43:00,50.3,34.7,30.09,North,4,0.0,0.0,55,0.00,CLR,,0.00,WeatherDisplay:10.37,2013-04-08 07:43:00,
2013-04-08 03:44:00,50.3,34.7,30.09,North,4,0.0,0.0,55,0.00,CLR,,0.00,WeatherDisplay:10.37,2013-04-08 07:44:00,
2013-04-08 03:47:00,50.3,33.8,30.09,North,4,0.0,0.0,53,0.00,CLR,,0.00,WeatherDisplay:10.37,2013-04-08 07:47:00,
2013-04-08 03:48:00,50.2,33.7,30.09,North,4,0.0,0.0,53,0.00,CLR,,0.00,WeatherDisplay:10.37,2013-04-08 07:48:00,
2013-04-08 03:49:00,50.5,33.5,30.10,North,4,0.0,0.0,52,0.00,CLR,,0.00,WeatherDisplay:10.37,2013-04-08 07:49:00,
2013-04-08 03:52:00,50.3,34.3,30.09,North,4,0.0,0.0,54,0.00,CLR,,0.00,WeatherDisplay:10.37,2013-04-08 07:52:00,
2013-04-08 03:53:00,50.2,34.2,30.09,North,4,0.0,0.0,54,0.00,CLR,,0.00,WeatherDisplay:10.37,2013-04-08 07:53:00,
2013-04-08 03:54:00,50.3,34.3,30.09,North,4,0.0,0.0,54,0.00,CLR,,0.00,WeatherDisplay:10.37,2013-04-08 07:54:00,
2013-04-08 03:57:00,50.3,33.3,30.09,East,95,0.0,0.0,52,0.00,CLR,,0.00,WeatherDisplay:10.37,2013-04-08 07:57:00,
2013-04-08 03:58:00,50.6,33.1,30.10,East,95,0.0,0.0,51,0.00,CLR,,0.00,WeatherDisplay:10.37,2013-04-08 07:58:00,
2013-04-08 03:59:00,50.5,33.0,30.10,East,95,0.0,0.0,51,0.00,CLR,,0.00,WeatherDisplay:10.37,2013-04-08 07:59:00,
2013-04-08 04:02:00,51.3,32.3,30.09,East,95,0.0,0.0,48,0.00,CLR,,0.00,WeatherDisplay:10.37,2013-04-08 08:02:00,
2013-04-08 04:03:00,51.1,31.6,30.09,East,95,0.0,0.0,47,0.00,CLR,,0.00,WeatherDisplay:10.37,2013-04-08 08:03:00,
2013-04-08 04:04:00,51.2,31.6,30.09,East,95,0.0,0.0,47,0.00,CLR,,0.00,WeatherDisplay:10.37,2013-04-08 08:04:00,
2013-04-08 04:05:00,51.2,31.6,30.09,East,95,0.0,0.0,47,0.00,CLR,,0.00,WeatherDisplay:10.37,2013-04-08 08:05:00,
2013-04-08 04:07:00,52.0,31.3,30.09,East,95,0.0,0.0,45,0.00,CLR,,0.00,WeatherDisplay:10.37,2013-04-08 08:07:00,
2013-04-08 04:08:00,51.1,30.5,30.09,East,95,0.0,0.0,45,0.00,CLR,,0.00,WeatherDisplay:10.37,2013-04-08 08:08:00,
2013-04-08 04:09:00,51.8,30.6,30.09,East,95,0.0,0.0,44,0.00,CLR,,0.00,WeatherDisplay:10.37,2013-04-08 08:09:00,
2013-04-08 04:10:00,51.1,29.9,30.09,East,95,0.0,0.0,44,0.00,CLR,,0.00,WeatherDisplay:10.37,2013-04-08 08:10:00,
2013-04-08 04:13:00,51.4,29.6,30.09,East,95,0.0,0.0,43,0.00,CLR,,0.00,WeatherDisplay:10.37,2013-04-08 08:13:00,
2013-04-08 04:14:00,52.3,29.9,30.09,East,95,0.0,0.0,42,0.00,CLR,,0.00,WeatherDisplay:10.37,2013-04-08 08:14:00,
2013-04-08 04:15:00,51.7,29.3,30.09,East,95,0.0,0.0,42,0.00,CLR,,0.00,WeatherDisplay:10.37,2013-04-08 08:15:00,
2013-04-08 04:18:00,50.8,30.7,30.09,East,95,0.0,0.0,46,0.00,CLR,,0.00,WeatherDisplay:10.37,2013-04-08 08:18:00,
2013-04-08 04:19:00,50.7,31.2,30.10,East,95,0.0,0.0,47,0.00,CLR,,0.00,WeatherDisplay:10.37,2013-04-08 08:19:00,
2013-04-08 04:20:00,50.3,31.3,30.10,East,95,0.0,0.0,48,0.00,CLR,,0.00,WeatherDisplay:10.37,2013-04-08 08:20:00,
2013-04-08 04:23:00,49.4,33.9,30.10,East,95,0.0,0.0,55,0.00,CLR,,0.00,WeatherDisplay:10.37,2013-04-08 08:23:00,
2013-04-08 04:25:00,48.8,36.4,30.10,East,95,0.0,0.0,62,0.00,CLR,,0.00,WeatherDisplay:10.37,2013-04-08 08:25:00,
2013-04-08 04:28:00,48.6,37.4,30.10,East,95,0.0,0.0,65,0.00,CLR,,0.00,WeatherDisplay:10.37,2013-04-08 08:28:00,
2013-04-08 04:29:00,48.6,37.7,30.10,East,95,0.0,0.0,66,0.00,CLR,,0.00,WeatherDisplay:10.37,2013-04-08 08:29:00,
2013-04-08 04:30:00,48.1,37.7,30.10,East,95,0.0,0.0,67,0.00,CLR,,0.00,WeatherDisplay:10.37,2013-04-08 08:30:00,
2013-04-08 04:32:00,47.9,38.6,30.10,East,95,0.0,0.0,70,0.00,CLR,,0.00,WeatherDisplay:10.37,2013-04-08 08:32:00,
2013-04-08 04:33:00,47.6,39.0,30.10,East,95,0.0,0.0,72,0.00,CLR,,0.00,WeatherDisplay:10.37,2013-04-08 08:33:00,
2013-04-08 04:34:00,47.8,39.9,30.10,East,95,0.0,0.0,74,0.00,CLR,,0.00,WeatherDisplay:10.37,2013-04-08 08:34:00,
2013-04-08 04:35:00,47.6,40.4,30.10,East,95,0.0,0.0,76,0.00,CLR,,0.00,WeatherDisplay:10.37,2013-04-08 08:35:00,
2013-04-08 04:37:00,47.9,41.0,30.10,East,95,0.0,0.0,77,0.00,CLR,,0.00,WeatherDisplay:10.37,2013-04-08 08:37:00,
2013-04-08 04:39:00,47.9,41.0,30.10,East,95,0.0,0.0,77,0.00,CLR,,0.00,WeatherDisplay:10.37,2013-04-08 08:39:00,
2013-04-08 04:40:00,48.0,41.1,30.10,East,95,0.0,0.0,77,0.00,CLR,,0.00,WeatherDisplay:10.37,2013-04-08 08:40:00,
2013-04-08 04:42:00,48.4,41.2,30.10,East,95,0.0,0.0,76,0.00,CLR,,0.00,WeatherDisplay:10.37,2013-04-08 08:42:00,
2013-04-08 04:44:00,48.4,40.8,30.10,East,95,0.0,0.0,75,0.00,CLR,,0.00,WeatherDisplay:10.37,2013-04-08 08:44:00,
2013-04-08 04:45:00,48.6,41.0,30.10,East,95,0.0,0.0,75,0.00,CLR,,0.00,WeatherDisplay:10.37,2013-04-08 08:45:00,
2013-04-08 04:47:00,48.6,40.3,30.10,East,95,0.0,0.0,73,0.00,CLR,,0.00,WeatherDisplay:10.37,2013-04-08 08:47:00,
2013-04-08 04:49:00,48.9,39.9,30.10,East,95,0.0,0.0,71,0.00,CLR,,0.00,WeatherDisplay:10.37,2013-04-08 08:49:00,
2013-04-08 04:50:00,48.8,39.4,30.10,East,95,0.0,0.0,70,0.00,CLR,,0.00,WeatherDisplay:10.37,2013-04-08 08:50:00,
2013-04-08 04:52:00,49.7,39.2,30.10,East,95,0.0,0.0,67,0.00,CLR,,0.00,WeatherDisplay:10.37,2013-04-08 08:52:00,
2013-04-08 04:55:00,50.2,38.5,30.10,East,95,0.0,0.0,64,0.00,CLR,,0.00,WeatherDisplay:10.37,2013-04-08 08:55:00,
2013-04-08 04:56:00,50.0,37.5,30.10,East,95,0.0,0.0,62,0.00,CLR,,0.00,WeatherDisplay:10.37,2013-04-08 08:56:00,
2013-04-08 04:58:00,50.4,37.4,30.10,East,95,0.0,0.0,61,0.00,CLR,,0.00,WeatherDisplay:10.37,2013-04-08 08:58:00,
2013-04-08 05:01:00,50.3,36.9,30.10,East,95,0.0,0.0,60,0.00,CLR,,0.00,WeatherDisplay:10.37,2013-04-08 09:01:00,
2013-04-08 05:03:00,50.6,37.2,30.11,East,95,0.0,0.0,60,0.00,CLR,,0.00,WeatherDisplay:10.37,2013-04-08 09:03:00,
2013-04-08 05:06:00,50.5,36.7,30.11,East,95,0.0,0.0,59,0.00,CLR,,0.00,WeatherDisplay:10.37,2013-04-08 09:06:00,
2013-04-08 05:07:00,50.4,36.6,30.11,East,95,0.0,0.0,59,0.00,CLR,,0.00,WeatherDisplay:10.37,2013-04-08 09:07:00,
2013-04-08 05:08:00,50.5,36.3,30.11,East,95,0.0,0.0,58,0.00,CLR,,0.00,WeatherDisplay:10.37,2013-04-08 09:08:00,
2013-04-08 05:12:00,50.7,35.6,30.11,East,95,0.0,0.0,56,0.00,CLR,,0.00,WeatherDisplay:10.37,2013-04-08 09:12:00,
2013-04-08 05:13:00,50.4,35.3,30.11,East,95,0.0,0.0,56,0.00,CLR,,0.00,WeatherDisplay:10.37,2013-04-08 09:13:00,
2013-04-08 05:17:00,50.4,35.3,30.11,East,95,0.0,0.0,56,0.00,CLR,,0.00,WeatherDisplay:10.37,2013-04-08 09:17:00,
2013-04-08 05:19:00,50.4,34.4,30.11,East,95,0.0,0.0,54,0.00,CLR,,0.00,WeatherDisplay:10.37,2013-04-08 09:19:00,
2013-04-08 05:22:00,50.2,35.1,30.11,East,95,0.0,0.0,56,0.00,CLR,,0.00,WeatherDisplay:10.37,2013-04-08 09:22:00,
2013-04-08 05:24:00,49.6,36.7,30.11,East,95,0.0,0.0,61,0.00,CLR,,0.00,WeatherDisplay:10.37,2013-04-08 09:24:00,
2013-04-08 05:28:00,49.8,38.1,30.11,East,95,0.0,0.0,64,0.00,CLR,,0.00,WeatherDisplay:10.37,2013-04-08 09:28:00,
2013-04-08 05:30:00,50.1,37.6,30.11,East,95,0.0,0.0,62,0.00,CLR,,0.00,WeatherDisplay:10.37,2013-04-08 09:30:00,
2013-04-08 05:33:00,50.4,37.0,30.11,East,95,0.0,0.0,60,0.00,CLR,,0.00,WeatherDisplay:10.37,2013-04-08 09:33:00,
2013-04-08 05:34:00,50.1,36.3,30.11,East,95,0.0,0.0,59,0.00,CLR,,0.00,WeatherDisplay:10.37,2013-04-08 09:34:00,
2013-04-08 05:36:00,50.2,36.4,30.11,East,95,0.0,0.0,59,0.00,CLR,,0.00,WeatherDisplay:10.37,2013-04-08 09:36:00,
2013-04-08 05:38:00,50.2,36.0,30.11,East,95,0.0,0.0,58,0.00,CLR,,0.00,WeatherDisplay:10.37,2013-04-08 09:38:00,
2013-04-08 05:39:00,49.9,35.7,30.11,East,95,0.0,0.0,58,0.00,CLR,,0.00,WeatherDisplay:10.37,2013-04-08 09:39:00,
2013-04-08 05:41:00,50.1,36.3,30.11,East,95,0.0,0.0,59,0.00,CLR,,0.00,WeatherDisplay:10.37,2013-04-08 09:41:00,
2013-04-08 05:43:00,50.2,36.8,30.11,East,95,0.0,0.0,60,0.00,CLR,,0.00,WeatherDisplay:10.37,2013-04-08 09:43:00,
2013-04-08 05:44:00,49.9,36.6,30.11,East,95,0.0,0.0,60,0.00,CLR,,0.00,WeatherDisplay:10.37,2013-04-08 09:44:00,
2013-04-08 05:46:00,49.6,36.3,30.11,East,95,0.0,0.0,60,0.00,CLR,,0.00,WeatherDisplay:10.37,2013-04-08 09:46:00,
2013-04-08 05:48:00,49.7,37.2,30.11,East,95,0.0,0.0,62,0.00,CLR,,0.00,WeatherDisplay:10.37,2013-04-08 09:48:00,
2013-04-08 05:49:00,49.5,36.6,30.11,East,95,0.0,0.0,61,0.00,CLR,,0.00,WeatherDisplay:10.37,2013-04-08 09:49:00,
2013-04-08 05:50:00,49.5,36.6,30.11,East,95,0.0,0.0,61,0.00,CLR,,0.00,WeatherDisplay:10.37,2013-04-08 09:50:00,
2013-04-08 05:51:00,49.9,37.0,30.11,East,95,0.0,0.0,61,0.00,CLR,,0.00,WeatherDisplay:10.37,2013-04-08 09:51:00,
2013-04-08 05:53:00,50.2,37.7,30.11,East,95,0.0,0.0,62,0.00,CLR,,0.00,WeatherDisplay:10.37,2013-04-08 09:53:00,
2013-04-08 05:54:00,50.1,37.2,30.11,East,95,0.0,0.0,61,0.00,CLR,,0.00,WeatherDisplay:10.37,2013-04-08 09:54:00,
2013-04-08 05:55:00,50.1,37.2,30.11,East,95,0.0,0.0,61,0.00,CLR,,0.00,WeatherDisplay:10.37,2013-04-08 09:55:00,
2013-04-08 05:57:00,50.2,36.8,30.11,East,95,0.0,0.0,60,0.00,CLR,,0.00,WeatherDisplay:10.37,2013-04-08 09:57:00,
2013-04-08 05:58:00,50.1,36.7,30.11,East,95,0.0,0.0,60,0.00,CLR,,0.00,WeatherDisplay:10.37,2013-04-08 09:58:00,
2013-04-08 06:00:00,50.2,36.8,30.11,East,95,0.0,0.0,60,0.00,CLR,,0.00,WeatherDisplay:10.37,2013-04-08 10:00:00,
2013-04-08 06:02:00,50.4,36.6,30.11,East,95,0.0,0.0,59,0.00,CLR,,0.00,WeatherDisplay:10.37,2013-04-08 10:02:00,
2013-04-08 06:03:00,50.4,36.2,30.11,East,95,0.0,0.0,58,0.00,CLR,,0.00,WeatherDisplay:10.37,2013-04-08 10:03:00,
2013-04-08 06:05:00,50.4,35.3,30.11,East,95,0.0,0.0,56,0.00,CLR,,0.00,WeatherDisplay:10.37,2013-04-08 10:05:00,
2013-04-08 06:06:00,50.8,35.7,30.11,East,95,0.0,0.0,56,0.00,CLR,,0.00,WeatherDisplay:10.37,2013-04-08 10:06:00,
2013-04-08 06:07:00,50.5,34.5,30.11,East,95,0.0,0.0,54,0.00,CLR,,0.00,WeatherDisplay:10.37,2013-04-08 10:07:00,
2013-04-08 06:08:00,50.3,34.3,30.11,East,95,0.0,0.0,54,0.00,CLR,,0.00,WeatherDisplay:10.37,2013-04-08 10:08:00,
2013-04-08 06:11:00,50.4,34.4,30.11,East,95,0.0,0.0,54,0.00,CLR,,0.00,WeatherDisplay:10.37,2013-04-08 10:11:00,
2013-04-08 06:12:00,50.3,34.3,30.11,East,95,0.0,0.0,54,0.00,CLR,,0.00,WeatherDisplay:10.37,2013-04-08 10:12:00,
2013-04-08 06:13:00,50.3,34.3,30.11,East,95,0.0,0.0,54,0.00,CLR,,0.00,WeatherDisplay:10.37,2013-04-08 10:13:00,
2013-04-08 06:16:00,50.5,34.5,30.11,East,95,0.0,0.0,54,0.00,CLR,,0.00,WeatherDisplay:10.37,2013-04-08 10:16:00,
2013-04-08 06:17:00,50.6,34.6,30.11,East,95,0.0,0.0,54,0.00,CLR,,0.00,WeatherDisplay:10.37,2013-04-08 10:17:00,
2013-04-08 06:19:00,50.6,33.6,30.11,East,95,0.0,0.0,52,0.00,CLR,,0.00,WeatherDisplay:10.37,2013-04-08 10:19:00,
2013-04-08 06:22:00,51.0,33.0,30.11,East,95,0.0,0.0,50,0.00,CLR,,0.00,WeatherDisplay:10.37,2013-04-08 10:22:00,
2013-04-08 06:23:00,51.0,33.5,30.11,East,95,0.0,0.0,51,0.00,CLR,,0.00,WeatherDisplay:10.37,2013-04-08 10:23:00,
2013-04-08 06:24:00,50.6,32.6,30.11,East,95,0.0,0.0,50,0.00,CLR,,0.00,WeatherDisplay:10.37,2013-04-08 10:24:00,
2013-04-08 06:27:00,50.7,32.2,30.11,East,95,0.0,0.0,49,0.00,CLR,,0.00,WeatherDisplay:10.37,2013-04-08 10:27:00,
2013-04-08 06:28:00,51.0,32.5,30.11,East,95,0.0,0.0,49,0.00,CLR,,0.00,WeatherDisplay:10.37,2013-04-08 10:28:00,
2013-04-08 06:30:00,50.7,32.2,30.11,East,95,0.0,0.0,49,0.00,CLR,,0.00,WeatherDisplay:10.37,2013-04-08 10:30:00,
2013-04-08 06:33:00,50.6,32.6,30.12,East,95,0.0,0.0,50,0.00,CLR,,0.00,WeatherDisplay:10.37,2013-04-08 10:33:00,
2013-04-08 06:35:00,50.6,32.6,30.12,East,95,0.0,0.0,50,0.00,CLR,,0.00,WeatherDisplay:10.37,2013-04-08 10:35:00,
2013-04-08 06:38:00,50.3,32.4,30.12,East,95,0.0,0.0,50,0.00,CLR,,0.00,WeatherDisplay:10.37,2013-04-08 10:38:00,
2013-04-08 06:40:00,50.3,32.8,30.12,East,95,0.0,0.0,51,0.00,CLR,,0.00,WeatherDisplay:10.37,2013-04-08 10:40:00,
2013-04-08 06:43:00,50.6,33.1,30.12,East,95,0.0,0.0,51,0.00,CLR,,0.00,WeatherDisplay:10.37,2013-04-08 10:43:00,
2013-04-08 06:46:00,50.4,32.4,30.11,East,95,0.0,0.0,50,0.00,CLR,,0.00,WeatherDisplay:10.37,2013-04-08 10:46:00,
2013-04-08 06:48:00,50.4,32.9,30.12,East,95,0.0,0.0,51,0.00,CLR,,0.00,WeatherDisplay:10.37,2013-04-08 10:48:00,
2013-04-08 06:49:00,50.4,32.9,30.11,East,95,0.0,0.0,51,0.00,CLR,,0.00,WeatherDisplay:10.37,2013-04-08 10:49:00,
2013-04-08 06:51:00,50.2,33.7,30.12,East,95,0.0,0.0,53,0.00,CLR,,0.00,WeatherDisplay:10.37,2013-04-08 10:51:00,
2013-04-08 06:53:00,50.2,34.2,30.12,East,95,0.0,0.0,54,0.00,CLR,,0.00,WeatherDisplay:10.37,2013-04-08 10:53:00,
2013-04-08 06:54:00,50.2,34.2,30.12,East,95,0.0,0.0,54,0.00,CLR,,0.00,WeatherDisplay:10.37,2013-04-08 10:54:00,
2013-04-08 06:57:00,50.4,34.4,30.12,East,95,0.0,0.0,54,0.00,CLR,,0.00,WeatherDisplay:10.37,2013-04-08 10:57:00,
2013-04-08 06:59:00,50.2,34.6,30.12,East,95,0.0,0.0,55,0.00,CLR,,0.00,WeatherDisplay:10.37,2013-04-08 10:59:00,
2013-04-08 07:02:00,50.3,34.7,30.13,East,95,0.0,0.0,55,0.00,CLR,,0.00,WeatherDisplay:10.37,2013-04-08 11:02:00,
2013-04-08 07:04:00,50.4,35.3,30.13,East,95,0.0,0.0,56,0.00,CLR,,0.00,WeatherDisplay:10.37,2013-04-08 11:04:00,
2013-04-08 07:05:00,50.2,34.6,30.13,East,95,0.0,0.0,55,0.00,CLR,,0.00,WeatherDisplay:10.37,2013-04-08 11:05:00,
2013-04-08 07:07:00,50.1,35.0,30.13,East,95,0.0,0.0,56,0.00,CLR,,0.00,WeatherDisplay:10.37,2013-04-08 11:07:00,
2013-04-08 07:09:00,49.7,35.9,30.13,East,95,0.0,0.0,59,0.00,CLR,,0.00,WeatherDisplay:10.37,2013-04-08 11:09:00,
2013-04-08 07:10:00,49.7,36.4,30.13,East,95,0.0,0.0,60,0.00,CLR,,0.00,WeatherDisplay:10.37,2013-04-08 11:10:00,
2013-04-08 07:12:00,49.2,36.7,30.13,East,95,0.0,0.0,62,0.00,CLR,,0.00,WeatherDisplay:10.37,2013-04-08 11:12:00,
2013-04-08 07:14:00,49.2,37.5,30.13,East,95,0.0,0.0,64,0.00,CLR,,0.00,WeatherDisplay:10.37,2013-04-08 11:14:00,
2013-04-08 07:15:00,49.4,37.7,30.13,East,95,0.0,0.0,64,0.00,CLR,,0.00,WeatherDisplay:10.37,2013-04-08 11:15:00,
2013-04-08 07:18:00,49.5,37.0,30.13,East,95,0.0,0.0,62,0.00,CLR,,0.00,WeatherDisplay:10.37,2013-04-08 11:18:00,
2013-04-08 07:19:00,49.8,36.9,30.13,East,95,0.0,0.0,61,0.00,CLR,,0.00,WeatherDisplay:10.37,2013-04-08 11:19:00,
2013-04-08 07:20:00,49.9,36.6,30.13,East,95,0.0,0.0,60,0.00,CLR,,0.00,WeatherDisplay:10.37,2013-04-08 11:20:00,
2013-04-08 07:21:00,49.8,36.5,30.13,East,95,0.0,0.0,60,0.00,CLR,,0.00,WeatherDisplay:10.37,2013-04-08 11:21:00,
2013-04-08 07:23:00,50.1,36.7,30.13,East,95,0.0,0.0,60,0.00,CLR,,0.00,WeatherDisplay:10.37,2013-04-08 11:23:00,
2013-04-08 07:25:00,50.1,36.3,30.14,East,95,0.0,0.0,59,0.00,CLR,,0.00,WeatherDisplay:10.37,2013-04-08 11:25:00,
2013-04-08 07:26:00,50.2,36.4,30.13,East,95,0.0,0.0,59,0.00,CLR,,0.00,WeatherDisplay:10.37,2013-04-08 11:26:00,
2013-04-08 07:29:00,49.8,36.5,30.13,East,95,0.0,0.0,60,0.00,CLR,,0.00,WeatherDisplay:10.37,2013-04-08 11:29:00,
2013-04-08 07:30:00,50.2,37.3,30.13,East,95,0.0,0.0,61,0.00,CLR,,0.00,WeatherDisplay:10.37,2013-04-08 11:30:00,
2013-04-08 07:31:00,50.3,37.4,30.13,East,95,0.0,0.0,61,0.00,CLR,,0.00,WeatherDisplay:10.37,2013-04-08 11:31:00,
2013-04-08 07:35:00,50.3,36.5,30.14,East,95,0.0,0.0,59,0.00,CLR,,0.00,WeatherDisplay:10.37,2013-04-08 11:35:00,
2013-04-08 07:36:00,50.3,36.1,30.14,East,95,0.0,0.0,58,0.00,CLR,,0.00,WeatherDisplay:10.37,2013-04-08 11:36:00,
2013-04-08 07:37:00,50.3,36.5,30.14,East,95,0.0,0.0,59,0.00,CLR,,0.00,WeatherDisplay:10.37,2013-04-08 11:37:00,
2013-04-08 07:41:00,51.0,35.8,30.14,East,95,0.0,0.0,56,0.00,CLR,,0.00,WeatherDisplay:10.37,2013-04-08 11:41:00,
2013-04-08 07:42:00,50.4,35.3,30.14,East,95,0.0,0.0,56,0.00,CLR,,0.00,WeatherDisplay:10.37,2013-04-08 11:42:00,
2013-04-08 07:46:00,50.3,35.6,30.14,East,95,0.0,0.0,57,0.00,CLR,,0.00,WeatherDisplay:10.37,2013-04-08 11:46:00,
2013-04-08 07:47:00,50.5,35.4,30.14,East,95,0.0,0.0,56,0.00,CLR,,0.00,WeatherDisplay:10.37,2013-04-08 11:47:00,
2013-04-08 07:52:00,50.6,36.4,30.14,East,95,0.0,0.0,58,0.00,CLR,,0.00,WeatherDisplay:10.37,2013-04-08 11:52:00,
2013-04-08 07:57:00,50.5,33.0,30.14,East,95,0.0,0.0,51,0.00,CLR,,0.00,WeatherDisplay:10.37,2013-04-08 11:57:00,
2013-04-08 07:58:00,50.6,32.6,30.14,East,95,0.0,0.0,50,0.00,CLR,,0.00,WeatherDisplay:10.37,2013-04-08 11:58:00,
2013-04-08 08:02:00,51.3,31.7,30.14,North,354,0.0,0.0,47,0.00,CLR,,0.00,WeatherDisplay:10.37,2013-04-08 12:02:00,
2013-04-08 08:03:00,50.7,30.7,30.14,North,354,0.0,0.0,46,0.00,CLR,,0.00,WeatherDisplay:10.37,2013-04-08 12:03:00,
2013-04-08 08:07:00,50.5,31.0,30.14,North,354,0.0,0.0,47,0.00,CLR,,0.00,WeatherDisplay:10.37,2013-04-08 12:07:00,
2013-04-08 08:08:00,50.8,31.3,30.14,North,354,0.0,0.0,47,0.00,CLR,,0.00,WeatherDisplay:10.37,2013-04-08 12:08:00,
2013-04-08 08:09:00,51.3,31.7,30.14,North,354,0.0,0.0,47,0.00,CLR,,0.00,WeatherDisplay:10.37,2013-04-08 12:09:00,
2013-04-08 08:12:00,51.7,29.9,30.14,North,354,0.0,0.0,43,0.00,CLR,,0.00,WeatherDisplay:10.37,2013-04-08 12:12:00,
2013-04-08 08:13:00,51.8,29.4,30.14,North,354,0.0,0.0,42,0.00,CLR,,0.00,WeatherDisplay:10.37,2013-04-08 12:13:00,
2013-04-08 08:14:00,51.1,29.9,30.14,North,354,0.0,0.0,44,0.00,CLR,,0.00,WeatherDisplay:10.37,2013-04-08 12:14:00,
2013-04-08 08:17:00,52.5,28.8,30.14,NW,312,3.6,5.8,40,0.00,CLR,,0.00,WeatherDisplay:10.37,2013-04-08 12:17:00,
2013-04-08 08:18:00,52.3,28.7,30.14,NW,312,0.9,4.6,40,0.00,CLR,,0.00,WeatherDisplay:10.37,2013-04-08 12:18:00,
2013-04-08 08:19:00,52.7,27.8,30.14,NW,312,0.0,0.0,38,0.00,CLR,,0.00,WeatherDisplay:10.37,2013-04-08 12:19:00,
2013-04-08 08:22:00,52.2,27.3,30.14,NW,309,3.8,5.8,38,0.00,CLR,,0.00,WeatherDisplay:10.37,2013-04-08 12:22:00,
2013-04-08 08:23:00,54.0,28.9,30.14,NNW,337,4.2,5.8,38,0.00,CLR,,0.00,WeatherDisplay:10.37,2013-04-08 12:23:00,
2013-04-08 08:25:00,52.5,26.3,30.14,NNW,335,4.6,6.8,36,0.00,CLR,,0.00,WeatherDisplay:10.37,2013-04-08 12:25:00,
2013-04-08 08:28:00,53.4,28.4,30.14,North,353,5.6,8.1,38,0.00,CLR,,0.00,WeatherDisplay:10.37,2013-04-08 12:28:00,
2013-04-08 08:29:00,51.8,27.0,30.14,NW,325,5.4,8.1,38,0.00,CLR,,0.00,WeatherDisplay:10.37,2013-04-08 12:29:00,
2013-04-08 08:30:00,52.3,26.8,30.14,NW,322,5.4,6.9,37,0.00,CLR,,0.00,WeatherDisplay:10.37,2013-04-08 12:30:00,
2013-04-08 08:33:00,52.8,29.1,30.14,NW,325,2.7,5.8,40,0.00,CLR,,0.00,WeatherDisplay:10.37,2013-04-08 12:33:00,
2013-04-08 08:34:00,53.6,28.6,30.14,WNW,294,4.9,6.9,38,0.00,CLR,,0.00,WeatherDisplay:10.37,2013-04-08 12:34:00,
2013-04-08 08:35:00,53.0,27.4,30.14,NW,313,5.9,8.1,37,0.00,CLR,,0.00,WeatherDisplay:10.37,2013-04-08 12:35:00,
2013-04-08 08:40:00,53.9,28.2,30.15,West,277,0.0,0.0,37,0.00,CLR,,0.00,WeatherDisplay:10.37,2013-04-08 12:40:00,
2013-04-08 08:41:00,53.2,26.9,30.15,West,277,0.0,0.0,36,0.00,CLR,,0.00,WeatherDisplay:10.37,2013-04-08 12:41:00,
2013-04-08 08:42:00,53.4,28.4,30.15,West,277,0.0,0.0,38,0.00,CLR,,0.00,WeatherDisplay:10.37,2013-04-08 12:42:00,
2013-04-08 08:45:00,52.9,28.0,30.15,NW,325,1.4,5.8,38,0.00,CLR,,0.00,WeatherDisplay:10.37,2013-04-08 12:45:00,
2013-04-08 08:46:00,53.1,27.5,30.15,WNW,282,2.8,5.8,37,0.00,CLR,,0.00,WeatherDisplay:10.37,2013-04-08 12:46:00,
2013-04-08 08:47:00,53.4,27.8,30.15,NNW,337,3.8,6.5,37,0.00,CLR,,0.00,WeatherDisplay:10.37,2013-04-08 12:47:00,
2013-04-08 08:51:00,54.2,27.8,30.14,WNW,285,3.7,5.8,36,0.00,CLR,,0.00,WeatherDisplay:10.37,2013-04-08 12:51:00,
2013-04-08 08:52:00,53.8,28.1,30.14,NW,309,4.0,5.8,37,0.00,CLR,,0.00,WeatherDisplay:10.37,2013-04-08 12:52:00,
2013-04-08 08:56:00,54.5,28.1,30.15,NW,315,0.7,4.6,36,0.00,CLR,,0.00,WeatherDisplay:10.37,2013-04-08 12:56:00,
2013-04-08 08:57:00,54.6,28.2,30.14,WNW,292,2.6,5.8,36,0.00,CLR,,0.00,WeatherDisplay:10.37,2013-04-08 12:57:00,
2013-04-08 09:01:00,55.7,28.4,30.14,WNW,292,0.0,0.0,35,0.00,CLR,,0.00,WeatherDisplay:10.37,2013-04-08 13:01:00,
2013-04-08 09:02:00,55.5,28.3,30.14,WNW,292,0.0,0.0,35,0.00,CLR,,0.00,WeatherDisplay:10.37,2013-04-08 13:02:00,
2013-04-08 09:03:00,55.9,28.6,30.14,WNW,292,0.0,0.0,35,0.00,CLR,,0.00,WeatherDisplay:10.37,2013-04-08 13:03:00,
2013-04-08 09:07:00,56.8,29.4,30.15,NW,326,4.4,6.9,35,0.00,CLR,,0.00,WeatherDisplay:10.37,2013-04-08 13:07:00,
2013-04-08 09:08:00,57.1,30.4,30.15,North,349,3.8,6.9,36,0.00,CLR,,0.00,WeatherDisplay:10.37,2013-04-08 13:08:00,
2013-04-08 09:12:00,55.9,29.3,30.15,West,280,1.8,4.6,36,0.00,CLR,,0.00,WeatherDisplay:10.37,2013-04-08 13:12:00,
2013-04-08 09:13:00,56.4,28.3,30.15,West,281,3.1,4.6,34,0.00,CLR,,0.00,WeatherDisplay:10.37,2013-04-08 13:13:00,
2013-04-08 09:17:00,58.0,29.0,30.15,NW,318,3.6,8.1,33,0.00,CLR,,0.00,WeatherDisplay:10.37,2013-04-08 13:17:00,
2013-04-08 09:18:00,56.5,27.0,30.15,NNW,330,3.8,6.9,32,0.00,CLR,,0.00,WeatherDisplay:10.37,2013-04-08 13:18:00,
2013-04-08 09:22:00,57.8,28.9,30.15,West,281,0.2,5.8,33,0.00,CLR,,0.00,WeatherDisplay:10.37,2013-04-08 13:22:00,
2013-04-08 09:23:00,59.2,30.1,30.15,West,281,0.0,0.0,33,0.00,CLR,,0.00,WeatherDisplay:10.37,2013-04-08 13:23:00,
2013-04-08 09:27:00,60.2,28.6,30.15,NW,312,3.0,5.8,30,0.00,CLR,,0.00,WeatherDisplay:10.37,2013-04-08 13:27:00,
2013-04-08 09:28:00,60.7,29.9,30.15,NW,312,0.1,4.6,31,0.00,CLR,,0.00,WeatherDisplay:10.37,2013-04-08 13:28:00,
2013-04-08 09:29:00,60.1,29.3,30.15,NW,312,0.0,0.0,31,0.00,CLR,,0.00,WeatherDisplay:10.37,2013-04-08 13:29:00,
2013-04-08 09:33:00,60.4,26.2,30.15,WNW,299,3.8,6.9,27,0.00,CLR,,0.00,WeatherDisplay:10.37,2013-04-08 13:33:00,
2013-04-08 09:34:00,60.8,28.3,30.15,NW,304,1.9,6.9,29,0.00,CLR,,0.00,WeatherDisplay:10.37,2013-04-08 13:34:00,
2013-04-08 09:38:00,61.0,27.6,30.15,NW,311,1.4,6.9,28,0.00,CLR,,0.00,WeatherDisplay:10.37,2013-04-08 13:38:00,
2013-04-08 09:39:00,60.8,27.5,30.15,NW,311,0.0,0.0,28,0.00,CLR,,0.00,WeatherDisplay:10.37,2013-04-08 13:39:00,
2013-04-08 09:40:00,61.1,27.7,30.15,NW,311,0.0,0.0,28,0.00,CLR,,0.00,WeatherDisplay:10.37,2013-04-08 13:40:00,
2013-04-08 09:43:00,61.8,26.5,30.14,WNW,296,0.0,0.0,26,0.00,CLR,,0.00,WeatherDisplay:10.37,2013-04-08 13:43:00,
2013-04-08 09:45:00,62.0,26.7,30.14,WNW,287,2.2,3.4,26,0.00,CLR,,0.00,WeatherDisplay:10.37,2013-04-08 13:45:00,
2013-04-08 09:48:00,62.7,26.3,30.15,NW,304,0.0,3.5,25,0.00,CLR,,0.00,WeatherDisplay:10.37,2013-04-08 13:48:00,
2013-04-08 09:50:00,62.8,26.4,30.15,NW,313,1.3,4.6,25,0.00,CLR,,0.00,WeatherDisplay:10.37,2013-04-08 13:50:00,
2013-04-08 09:53:00,63.4,25.9,30.15,WNW,295,0.0,0.0,24,0.00,CLR,,0.00,WeatherDisplay:10.37,2013-04-08 13:53:00,
2013-04-08 09:55:00,63.6,26.1,30.14,WNW,295,0.0,0.0,24,0.00,CLR,,0.00,WeatherDisplay:10.37,2013-04-08 13:55:00,
2013-04-08 09:58:00,63.6,21.7,30.15,NW,316,2.6,5.1,20,0.00,CLR,,0.00,WeatherDisplay:10.37,2013-04-08 13:58:00,
2013-04-08 10:00:00,64.6,24.9,30.15,WNW,296,0.0,0.0,22,0.00,CLR,,0.00,WeatherDisplay:10.37,2013-04-08 14:00:00,
2013-04-08 10:01:00,64.6,24.9,30.15,WNW,296,0.0,0.0,22,0.00,CLR,,0.00,WeatherDisplay:10.37,2013-04-08 14:01:00,
2013-04-08 10:05:00,64.2,24.5,30.14,NW,325,4.8,6.9,22,0.00,CLR,,0.00,WeatherDisplay:10.37,2013-04-08 14:05:00,
2013-04-08 10:06:00,64.1,23.3,30.14,NW,320,4.0,6.9,21,0.00,CLR,,0.00,WeatherDisplay:10.37,2013-04-08 14:06:00,
2013-04-08 10:07:00,64.4,23.6,30.14,NW,320,0.0,5.8,21,0.00,CLR,,0.00,WeatherDisplay:10.37,2013-04-08 14:07:00,
2013-04-08 10:10:00,65.3,21.9,30.14,WNW,287,1.2,4.6,19,0.00,CLR,,0.00,WeatherDisplay:10.37,2013-04-08 14:10:00,
2013-04-08 10:11:00,65.4,22.0,30.14,WNW,302,1.5,4.6,19,0.00,CLR,,0.00,WeatherDisplay:10.37,2013-04-08 14:11:00,
2013-04-08 10:12:00,65.8,21.1,30.14,WNW,302,0.2,4.6,18,0.00,CLR,,0.00,WeatherDisplay:10.37,2013-04-08 14:12:00,
2013-04-08 10:15:00,66.1,20.0,30.14,WNW,302,0.0,0.0,17,0.00,CLR,,0.00,WeatherDisplay:10.37,2013-04-08 14:15:00,
2013-04-08 10:16:00,66.1,20.0,30.14,WNW,302,0.0,0.0,17,0.00,CLR,,0.00,WeatherDisplay:10.37,2013-04-08 14:16:00,
2013-04-08 10:17:00,65.9,21.2,30.14,WNW,302,0.0,0.0,18,0.00,CLR,,0.00,WeatherDisplay:10.37,2013-04-08 14:17:00,
2013-04-08 10:20:00,66.9,20.6,30.14,WNW,291,0.8,5.0,17,0.00,CLR,,0.00,WeatherDisplay:10.37,2013-04-08 14:20:00,
2013-04-08 10:21:00,67.1,19.4,30.14,WNW,285,1.7,4.3,16,0.00,CLR,,0.00,WeatherDisplay:10.37,2013-04-08 14:21:00,
2013-04-08 10:22:00,66.9,20.6,30.14,WNW,299,0.0,4.6,17,0.00,CLR,,0.00,WeatherDisplay:10.37,2013-04-08 14:22:00,
2013-04-08 10:25:00,67.1,20.8,30.14,WNW,282,0.2,3.4,17,0.00,CLR,,0.00,WeatherDisplay:10.37,2013-04-08 14:25:00,
2013-04-08 10:27:00,66.9,19.2,30.14,West,272,2.3,4.6,16,0.00,CLR,,0.00,WeatherDisplay:10.37,2013-04-08 14:27:00,
2013-04-08 10:30:00,67.5,19.7,30.14,NNW,336,1.1,4.6,16,0.00,CLR,,0.00,WeatherDisplay:10.37,2013-04-08 14:30:00,
2013-04-08 10:32:00,68.0,20.1,30.14,NNW,336,0.0,0.0,16,0.00,CLR,,0.00,WeatherDisplay:10.37,2013-04-08 14:32:00,
2013-04-08 10:35:00,68.5,19.0,30.14,NNW,336,0.0,0.0,15,0.00,CLR,,0.00,WeatherDisplay:10.37,2013-04-08 14:35:00,
2013-04-08 10:37:00,69.4,16.4,30.14,NNW,336,0.0,0.0,13,0.00,CLR,,0.00,WeatherDisplay:10.37,2013-04-08 14:37:00,
2013-04-08 10:38:00,69.4,16.4,30.14,NNW,336,0.0,0.0,13,0.00,CLR,,0.00,WeatherDisplay:10.37,2013-04-08 14:38:00,
2013-04-08 10:41:00,70.0,16.8,30.14,West,272,0.0,4.6,13,0.00,CLR,,0.00,WeatherDisplay:10.37,2013-04-08 14:41:00,
2013-04-08 10:43:00,70.1,13.1,30.14,West,272,0.0,0.0,11,0.00,CLR,,0.00,WeatherDisplay:10.37,2013-04-08 14:43:00,
2013-04-08 10:46:00,70.4,13.3,30.14,West,272,0.0,0.0,11,0.00,CLR,,0.00,WeatherDisplay:10.37,2013-04-08 14:46:00,
2013-04-08 10:48:00,70.6,15.5,30.14,WNW,284,3.6,5.8,12,0.00,CLR,,0.00,WeatherDisplay:10.37,2013-04-08 14:48:00,
2013-04-08 10:52:00,69.9,12.9,30.14,WSW,241,0.8,3.5,11,0.00,CLR,,0.00,WeatherDisplay:10.37,2013-04-08 14:52:00,
2013-04-08 10:53:00,69.8,12.9,30.14,WSW,241,0.0,3.5,11,0.00,CLR,,0.00,WeatherDisplay:10.37,2013-04-08 14:53:00,
2013-04-08 10:54:00,69.8,14.8,30.14,WSW,241,0.0,0.0,12,0.00,CLR,,0.00,WeatherDisplay:10.37,2013-04-08 14:54:00,
2013-04-08 10:57:00,70.6,13.5,30.14,WSW,241,0.0,0.0,11,0.00,CLR,,0.00,WeatherDisplay:10.37,2013-04-08 14:57:00,
2013-04-08 10:58:00,70.7,13.5,30.14,WSW,241,0.0,0.0,11,0.00,CLR,,0.00,WeatherDisplay:10.37,2013-04-08 14:58:00,
2013-04-08 10:59:00,71.6,12.1,30.14,WSW,241,0.0,0.0,10,0.00,CLR,,0.00,WeatherDisplay:10.37,2013-04-08 14:59:00,
2013-04-08 11:00:00,72.2,12.5,30.14,WSW,241,0.0,0.0,10,0.00,CLR,,0.00,WeatherDisplay:10.37,2013-04-08 15:00:00,
2013-04-08 11:02:00,73.6,5.6,30.14,WSW,241,0.0,0.0,7,0.00,CLR,,0.00,WeatherDisplay:10.37,2013-04-08 15:02:00,
2013-04-08 11:03:00,73.5,2.2,30.14,WSW,241,0.0,0.0,6,0.00,CLR,,0.00,WeatherDisplay:10.37,2013-04-08 15:03:00,
2013-04-08 11:04:00,74.1,6.0,30.14,WSW,241,0.0,0.0,7,0.00,CLR,,0.00,WeatherDisplay:10.37,2013-04-08 15:04:00,
2013-04-08 11:05:00,73.9,2.5,30.14,WSW,241,0.0,0.0,6,0.00,CLR,,0.00,WeatherDisplay:10.37,2013-04-08 15:05:00,
2013-04-08 11:07:00,73.7,2.4,30.14,WSW,241,0.0,0.0,6,0.00,CLR,,0.00,WeatherDisplay:10.37,2013-04-08 15:07:00,
2013-04-08 11:08:00,73.5,2.2,30.14,WSW,241,0.0,0.0,6,0.00,CLR,,0.00,WeatherDisplay:10.37,2013-04-08 15:08:00,
2013-04-08 11:10:00,74.6,3.0,30.14,WSW,241,0.0,0.0,6,0.00,CLR,,0.00,WeatherDisplay:10.37,2013-04-08 15:10:00,
2013-04-08 11:12:00,74.7,3.1,30.14,WSW,241,0.0,0.0,6,0.00,CLR,,0.00,WeatherDisplay:10.37,2013-04-08 15:12:00,
2013-04-08 11:13:00,75.1,3.4,30.14,WSW,241,0.0,0.0,6,0.00,CLR,,0.00,WeatherDisplay:10.37,2013-04-08 15:13:00,
2013-04-08 11:15:00,74.4,2.9,30.14,NE,45,0.3,2.3,6,0.00,CLR,,0.00,WeatherDisplay:10.37,2013-04-08 15:15:00,
2013-04-08 11:18:00,74.7,3.1,30.14,NE,45,0.0,0.0,6,0.00,CLR,,0.00,WeatherDisplay:10.37,2013-04-08 15:18:00,
2013-04-08 11:20:00,75.7,3.8,30.14,NE,45,0.0,0.0,6,0.00,CLR,,0.00,WeatherDisplay:10.37,2013-04-08 15:20:00,
2013-04-08 11:21:00,75.8,3.9,30.14,NE,45,0.0,0.0,6,0.00,CLR,,0.00,WeatherDisplay:10.37,2013-04-08 15:21:00,
2013-04-08 11:23:00,76.3,0.3,30.14,NE,45,0.0,0.0,5,0.00,CLR,,0.00,WeatherDisplay:10.37,2013-04-08 15:23:00,
2013-04-08 11:26:00,76.9,4.7,30.14,NE,45,0.0,0.0,6,0.00,CLR,,0.00,WeatherDisplay:10.37,2013-04-08 15:26:00,
2013-04-08 11:29:00,76.2,4.2,30.14,NE,45,0.0,0.0,6,0.00,CLR,,0.00,WeatherDisplay:10.37,2013-04-08 15:29:00,
2013-04-08 11:31:00,74.7,3.1,30.13,NE,52,1.5,3.5,6,0.00,CLR,,0.00,WeatherDisplay:10.37,2013-04-08 15:31:00,
2013-04-08 11:32:00,74.7,6.4,30.13,NE,52,0.0,3.5,7,0.00,CLR,,0.00,WeatherDisplay:10.37,2013-04-08 15:32:00,
2013-04-08 11:33:00,74.7,3.1,30.13,NE,52,0.0,0.0,6,0.00,CLR,,0.00,WeatherDisplay:10.37,2013-04-08 15:33:00,
2013-04-08 11:35:00,75.0,3.3,30.13,NE,52,0.0,0.0,6,0.00,CLR,,0.00,WeatherDisplay:10.37,2013-04-08 15:35:00,
2013-04-08 11:38:00,76.1,4.1,30.13,North,7,0.0,0.0,6,0.00,CLR,,0.00,WeatherDisplay:10.37,2013-04-08 15:38:00,
2013-04-08 11:40:00,76.4,4.3,30.13,NNW,336,0.0,4.6,6,0.00,CLR,,0.00,WeatherDisplay:10.37,2013-04-08 15:40:00,
2013-04-08 11:43:00,76.5,4.4,30.13,NNW,336,0.0,0.0,6,0.00,CLR,,0.00,WeatherDisplay:10.37,2013-04-08 15:43:00,
2013-04-08 11:45:00,76.9,4.7,30.13,ESE,103,2.4,4.6,6,0.00,CLR,,0.00,WeatherDisplay:10.37,2013-04-08 15:45:00,
2013-04-08 11:48:00,76.6,4.5,30.13,NE,47,0.0,0.0,6,0.00,CLR,,0.00,WeatherDisplay:10.37,2013-04-08 15:48:00,
2013-04-08 11:50:00,76.8,0.7,30.13,NE,47,0.0,0.0,5,0.00,CLR,,0.00,WeatherDisplay:10.37,2013-04-08 15:50:00,
2013-04-08 11:53:00,78.1,1.6,30.13,SSE,155,4.8,8.1,5,0.00,CLR,,0.00,WeatherDisplay:10.37,2013-04-08 15:53:00,
2013-04-08 11:56:00,78.5,1.9,30.13,SE,130,0.0,0.0,5,0.00,CLR,,0.00,WeatherDisplay:10.37,2013-04-08 15:56:00,
2013-04-08 11:58:00,78.1,1.6,30.13,SE,137,2.2,3.2,5,0.00,CLR,,0.00,WeatherDisplay:10.37,2013-04-08 15:58:00,
2013-04-08 11:59:00,78.7,2.0,30.13,SE,137,1.2,4.6,5,0.00,CLR,,0.00,WeatherDisplay:10.37,2013-04-08 15:59:00,
2013-04-08 12:01:00,77.2,0.9,30.12,WNW,299,2.4,5.2,5,0.00,CLR,,0.00,WeatherDisplay:10.37,2013-04-08 16:01:00,
2013-04-08 12:03:00,76.6,4.5,30.12,WNW,299,0.0,4.6,6,0.00,CLR,,0.00,WeatherDisplay:10.37,2013-04-08 16:03:00,
2013-04-08 12:04:00,76.5,4.4,30.12,WNW,299,0.0,0.0,6,0.00,CLR,,0.00,WeatherDisplay:10.37,2013-04-08 16:04:00,
2013-04-08 12:05:00,76.7,4.5,30.12,WNW,299,0.0,0.0,6,0.00,CLR,,0.00,WeatherDisplay:10.37,2013-04-08 16:05:00,
2013-04-08 12:07:00,76.4,4.3,30.12,ESE,109,1.8,6.9,6,0.00,CLR,,0.00,WeatherDisplay:10.37,2013-04-08 16:07:00,
2013-04-08 12:09:00,76.2,4.2,30.12,WSW,237,5.1,6.9,6,0.00,CLR,,0.00,WeatherDisplay:10.37,2013-04-08 16:09:00,
2013-04-08 12:10:00,75.9,3.9,30.12,SSW,193,2.3,6.9,6,0.00,CLR,,0.00,WeatherDisplay:10.37,2013-04-08 16:10:00,
2013-04-08 12:12:00,76.2,4.2,30.12,SE,144,6.2,6.6,6,0.00,CLR,,0.00,WeatherDisplay:10.37,2013-04-08 16:12:00,
2013-04-08 12:14:00,76.6,0.5,30.12,SE,128,0.4,5.8,5,0.00,CLR,,0.00,WeatherDisplay:10.37,2013-04-08 16:14:00,
2013-04-08 12:15:00,76.8,0.7,30.12,SSE,160,2.9,0.0,5,0.00,CLR,,0.00,WeatherDisplay:10.37,2013-04-08 16:15:00,
2013-04-08 12:17:00,77.5,1.2,30.12,ESE,120,0.4,2.3,5,0.00,CLR,,0.00,WeatherDisplay:10.37,2013-04-08 16:17:00,
2013-04-08 12:19:00,77.0,0.8,30.11,South,184,1.8,7.6,5,0.00,CLR,,0.00,WeatherDisplay:10.37,2013-04-08 16:19:00,
2013-04-08 12:20:00,77.0,0.8,30.11,SSE,147,6.1,7.3,5,0.00,CLR,,0.00,WeatherDisplay:10.37,2013-04-08 16:20:00,
2013-04-08 12:22:00,76.9,0.7,30.11,NW,308,6.0,8.1,5,0.00,CLR,,0.00,WeatherDisplay:10.37,2013-04-08 16:22:00,
2013-04-08 12:25:00,74.8,6.5,30.11,NNW,332,5.6,6.9,7,0.00,CLR,,0.00,WeatherDisplay:10.37,2013-04-08 16:25:00,
2013-04-08 12:27:00,74.7,6.4,30.11,SSW,209,2.4,6.9,7,0.00,CLR,,0.00,WeatherDisplay:10.37,2013-04-08 16:27:00,
2013-04-08 12:30:00,74.5,6.3,30.11,SSW,205,0.0,0.0,7,0.00,CLR,,0.00,WeatherDisplay:10.37,2013-04-08 16:30:00,
2013-04-08 12:31:00,74.5,2.9,30.11,SSW,205,0.0,0.0,6,0.00,CLR,,0.00,WeatherDisplay:10.37,2013-04-08 16:31:00,
2013-04-08 12:32:00,74.7,6.4,30.11,SSW,205,0.0,0.0,7,0.00,CLR,,0.00,WeatherDisplay:10.37,2013-04-08 16:32:00,
2013-04-08 12:35:00,74.8,3.1,30.11,SSW,205,0.0,0.0,6,0.00,CLR,,0.00,WeatherDisplay:10.37,2013-04-08 16:35:00,
2013-04-08 12:36:00,74.9,3.2,30.11,SSW,205,0.0,0.0,6,0.00,CLR,,0.00,WeatherDisplay:10.37,2013-04-08 16:36:00,
2013-04-08 12:37:00,74.8,3.1,30.11,SSW,205,0.0,0.0,6,0.00,CLR,,0.00,WeatherDisplay:10.37,2013-04-08 16:37:00,
2013-04-08 12:40:00,74.7,3.1,30.11,NNW,332,3.1,5.8,6,0.00,CLR,,0.00,WeatherDisplay:10.37,2013-04-08 16:40:00,
2013-04-08 12:42:00,74.5,6.3,30.11,North,7,1.2,5.8,7,0.00,CLR,,0.00,WeatherDisplay:10.37,2013-04-08 16:42:00,
2013-04-08 12:46:00,73.9,5.9,30.11,South,188,0.0,5.8,7,0.00,CLR,,0.00,WeatherDisplay:10.37,2013-04-08 16:46:00,
2013-04-08 12:48:00,74.1,6.0,30.10,South,188,0.0,0.0,7,0.00,CLR,,0.00,WeatherDisplay:10.37,2013-04-08 16:48:00,
2013-04-08 12:51:00,74.7,3.1,30.10,South,188,0.0,0.0,6,0.00,CLR,,0.00,WeatherDisplay:10.37,2013-04-08 16:51:00,
2013-04-08 12:52:00,74.7,3.1,30.10,South,188,0.0,0.0,6,0.00,CLR,,0.00,WeatherDisplay:10.37,2013-04-08 16:52:00,
2013-04-08 12:53:00,74.7,3.1,30.10,South,188,0.0,0.0,6,0.00,CLR,,0.00,WeatherDisplay:10.37,2013-04-08 16:53:00,
2013-04-08 12:57:00,74.7,3.1,30.10,WNW,292,0.0,0.0,6,0.00,CLR,,0.00,WeatherDisplay:10.37,2013-04-08 16:57:00,
2013-04-08 12:59:00,75.9,3.9,30.10,WNW,292,0.0,0.0,6,0.00,CLR,,0.00,WeatherDisplay:10.37,2013-04-08 16:59:00,
2013-04-08 13:02:00,76.6,0.5,30.09,WNW,292,0.0,0.0,5,0.00,CLR,,0.00,WeatherDisplay:10.37,2013-04-08 17:02:00,
2013-04-08 13:04:00,76.5,4.4,30.09,WNW,292,0.0,0.0,6,0.00,CLR,,0.00,WeatherDisplay:10.37,2013-04-08 17:04:00,
2013-04-08 13:07:00,76.3,4.2,30.09,WNW,292,0.0,0.0,6,0.00,CLR,,0.00,WeatherDisplay:10.37,2013-04-08 17:07:00,
2013-04-08 13:09:00,76.4,4.3,30.09,WNW,292,0.0,0.0,6,0.00,CLR,,0.00,WeatherDisplay:10.37,2013-04-08 17:09:00,
2013-04-08 13:10:00,76.3,4.2,30.09,WNW,292,0.1,3.1,6,0.00,CLR,,0.00,WeatherDisplay:10.37,2013-04-08 17:10:00,
2013-04-08 13:13:00,77.1,0.9,30.09,East,99,0.0,3.5,5,0.00,CLR,,0.00,WeatherDisplay:10.37,2013-04-08 17:13:00,
2013-04-08 13:14:00,76.7,0.6,30.09,East,99,5.0,8.9,5,0.00,CLR,,0.00,WeatherDisplay:10.37,2013-04-08 17:14:00,
2013-04-08 13:15:00,76.6,0.5,30.09,East,92,6.6,9.2,5,0.00,CLR,,0.00,WeatherDisplay:10.37,2013-04-08 17:15:00,
2013-04-08 13:18:00,76.4,4.3,30.08,ENE,75,4.2,8.1,6,0.00,CLR,,0.00,WeatherDisplay:10.37,2013-04-08 17:18:00,
2013-04-08 13:20:00,75.6,3.7,30.08,ESE,102,6.6,8.1,6,0.00,CLR,,0.00,WeatherDisplay:10.37,2013-04-08 17:20:00,
2013-04-08 13:23:00,76.3,4.2,30.08,NNE,25,0.0,5.8,6,0.00,CLR,,0.00,WeatherDisplay:10.37,2013-04-08 17:23:00,
2013-04-08 13:25:00,75.4,3.6,30.08,ENE,64,3.7,6.9,6,0.00,CLR,,0.00,WeatherDisplay:10.37,2013-04-08 17:25:00,
2013-04-08 13:26:00,75.1,3.4,30.08,East,92,1.8,4.6,6,0.00,CLR,,0.00,WeatherDisplay:10.37,2013-04-08 17:26:00,
2013-04-08 13:28:00,76.2,4.2,30.08,East,88,1.7,6.9,6,0.00,CLR,,0.00,WeatherDisplay:10.37,2013-04-08 17:28:00,
2013-04-08 13:30:00,76.8,0.7,30.08,ESE,107,0.0,3.5,5,0.00,CLR,,0.00,WeatherDisplay:10.37,2013-04-08 17:30:00,
2013-04-08 13:31:00,76.9,0.7,30.08,ESE,107,0.0,0.0,5,0.00,CLR,,0.00,WeatherDisplay:10.37,2013-04-08 17:31:00,
2013-04-08 13:33:00,77.7,1.3,30.08,ESE,107,0.0,0.0,5,0.00,CLR,,0.00,WeatherDisplay:10.37,2013-04-08 17:33:00,
2013-04-08 13:35:00,77.8,-3.4,30.08,WSW,241,2.1,3.5,4,0.00,CLR,,0.00,WeatherDisplay:10.37,2013-04-08 17:35:00,
2013-04-08 13:37:00,77.2,-3.8,30.08,WSW,241,0.0,0.0,4,0.00,CLR,,0.00,WeatherDisplay:10.37,2013-04-08 17:37:00,
2013-04-08 13:38:00,77.4,-3.7,30.08,WSW,241,0.0,0.0,4,0.00,CLR,,0.00,WeatherDisplay:10.37,2013-04-08 17:38:00,
2013-04-08 13:40:00,78.9,-2.6,30.08,WSW,241,0.0,0.0,4,0.00,CLR,,0.00,WeatherDisplay:10.37,2013-04-08 17:40:00,
2013-04-08 13:43:00,77.8,-3.4,30.08,WSW,241,0.0,0.0,4,0.00,CLR,,0.00,WeatherDisplay:10.37,2013-04-08 17:43:00,
2013-04-08 13:44:00,77.8,-3.4,30.08,NE,38,1.1,3.0,4,0.00,CLR,,0.00,WeatherDisplay:10.37,2013-04-08 17:44:00,
2013-04-08 13:45:00,77.0,0.8,30.08,NE,40,0.0,4.6,5,0.00,CLR,,0.00,WeatherDisplay:10.37,2013-04-08 17:45:00,
2013-04-08 13:46:00,77.9,1.4,30.08,NE,40,0.0,4.6,5,0.00,CLR,,0.00,WeatherDisplay:10.37,2013-04-08 17:46:00,
2013-04-08 13:48:00,77.9,1.4,30.08,NNE,32,1.4,5.5,5,0.00,CLR,,0.00,WeatherDisplay:10.37,2013-04-08 17:48:00,
2013-04-08 13:49:00,77.9,1.4,30.08,NE,42,5.8,8.1,5,0.00,CLR,,0.00,WeatherDisplay:10.37,2013-04-08 17:49:00,
2013-04-08 13:51:00,76.8,4.6,30.08,NE,38,2.7,4.6,6,0.00,CLR,,0.00,WeatherDisplay:10.37,2013-04-08 17:51:00,
2013-04-08 13:53:00,76.7,0.6,30.08,NE,56,0.1,6.9,5,0.00,CLR,,0.00,WeatherDisplay:10.37,2013-04-08 17:53:00,
2013-04-08 13:54:00,76.6,0.5,30.08,NE,56,0.0,0.0,5,0.00,CLR,,0.00,WeatherDisplay:10.37,2013-04-08 17:54:00,
2013-04-08 13:56:00,76.6,4.5,30.08,SE,143,7.0,10.4,6,0.00,CLR,,0.00,WeatherDisplay:10.37,2013-04-08 17:56:00,
2013-04-08 13:58:00,76.8,4.6,30.08,East,85,3.8,6.9,6,0.00,CLR,,0.00,WeatherDisplay:10.37,2013-04-08 17:58:00,
2013-04-08 13:59:00,76.8,0.7,30.08,ENE,71,2.7,5.8,5,0.00,CLR,,0.00,WeatherDisplay:10.37,2013-04-08 17:59:00,
2013-04-08 14:02:00,76.5,4.4,30.08,ENE,65,1.5,6.9,6,0.00,CLR,,0.00,WeatherDisplay:10.37,2013-04-08 18:02:00,
2013-04-08 14:03:00,76.1,4.1,30.08,ENE,65,0.0,3.5,6,0.00,CLR,,0.00,WeatherDisplay:10.37,2013-04-08 18:03:00,
2013-04-08 14:04:00,76.4,4.3,30.08,ENE,65,0.0,0.0,6,0.00,CLR,,0.00,WeatherDisplay:10.37,2013-04-08 18:04:00,
2013-04-08 14:07:00,76.9,0.7,30.08,ENE,65,0.0,0.0,5,0.00,CLR,,0.00,WeatherDisplay:10.37,2013-04-08 18:07:00,
2013-04-08 14:08:00,76.9,0.7,30.07,ENE,65,0.0,0.0,5,0.00,CLR,,0.00,WeatherDisplay:10.37,2013-04-08 18:08:00,
2013-04-08 14:09:00,76.8,0.7,30.08,SSW,208,0.5,5.8,5,0.00,CLR,,0.00,WeatherDisplay:10.37,2013-04-08 18:09:00,
2013-04-08 14:10:00,76.8,0.7,30.08,SSW,208,0.0,5.8,5,0.00,CLR,,0.00,WeatherDisplay:10.37,2013-04-08 18:10:00,
2013-04-08 14:12:00,76.8,4.6,30.07,SSW,192,2.0,3.4,6,0.00,CLR,,0.00,WeatherDisplay:10.37,2013-04-08 18:12:00,
2013-04-08 14:13:00,76.7,0.6,30.07,SW,220,4.7,5.1,5,0.00,CLR,,0.00,WeatherDisplay:10.37,2013-04-08 18:13:00,
2013-04-08 14:14:00,76.7,4.5,30.07,WSW,258,1.3,4.6,6,0.00,CLR,,0.00,WeatherDisplay:10.37,2013-04-08 18:14:00,
2013-04-08 14:15:00,76.7,4.5,30.07,West,278,0.6,4.6,6,0.00,CLR,,0.00,WeatherDisplay:10.37,2013-04-08 18:15:00,
2013-04-08 14:17:00,75.9,3.9,30.07,NW,309,0.3,6.0,6,0.00,CLR,,0.00,WeatherDisplay:10.37,2013-04-08 18:17:00,
2013-04-08 14:18:00,75.2,3.4,30.07,NW,315,5.9,8.1,6,0.00,CLR,,0.00,WeatherDisplay:10.37,2013-04-08 18:18:00,
2013-04-08 14:20:00,75.3,3.5,30.07,NNW,333,5.1,6.9,6,0.00,CLR,,0.00,WeatherDisplay:10.37,2013-04-08 18:20:00,
2013-04-08 14:22:00,75.3,3.5,30.06,NNW,335,0.0,0.0,6,0.00,CLR,,0.00,WeatherDisplay:10.37,2013-04-08 18:22:00,
2013-04-08 14:23:00,75.6,3.7,30.06,NNW,335,0.0,0.0,6,0.00,CLR,,0.00,WeatherDisplay:10.37,2013-04-08 18:23:00,
2013-04-08 14:25:00,76.2,4.2,30.06,NNW,335,0.0,0.0,6,0.00,CLR,,0.00,WeatherDisplay:10.37,2013-04-08 18:25:00,
2013-04-08 14:28:00,76.8,4.6,30.06,NNW,335,0.0,2.4,6,0.00,CLR,,0.00,WeatherDisplay:10.37,2013-04-08 18:28:00,
2013-04-08 14:29:00,76.9,0.7,30.06,West,260,1.7,4.6,5,0.00,CLR,,0.00,WeatherDisplay:10.37,2013-04-08 18:29:00,
2013-04-08 14:30:00,76.7,0.6,30.06,West,260,0.7,4.6,5,0.00,CLR,,0.00,WeatherDisplay:10.37,2013-04-08 18:30:00,
2013-04-08 14:33:00,77.0,0.8,30.06,West,260,0.0,0.0,5,0.00,CLR,,0.00,WeatherDisplay:10.37,2013-04-08 18:33:00,
2013-04-08 14:35:00,77.7,1.3,30.05,NE,37,3.6,6.9,5,0.00,CLR,,0.00,WeatherDisplay:10.37,2013-04-08 18:35:00,
2013-04-08 14:38:00,77.8,-3.4,30.05,SSE,164,1.8,11.3,4,0.00,CLR,,0.00,WeatherDisplay:10.37,2013-04-08 18:38:00,
2013-04-08 14:40:00,79.8,-2.0,30.05,SW,230,0.5,9.2,4,0.00,CLR,,0.00,WeatherDisplay:10.37,2013-04-08 18:40:00,
2013-04-08 14:41:00,79.0,-2.5,30.05,ESE,113,2.6,4.2,4,0.00,CLR,,0.00,WeatherDisplay:10.37,2013-04-08 18:41:00,
2013-04-08 14:43:00,80.0,-1.9,30.05,ESE,110,3.3,6.9,4,0.00,CLR,,0.00,WeatherDisplay:10.37,2013-04-08 18:43:00,
2013-04-08 14:45:00,79.2,-2.4,30.05,SSE,151,6.2,10.4,4,0.00,CLR,,0.00,WeatherDisplay:10.37,2013-04-08 18:45:00,
2013-04-08 14:46:00,79.5,-2.2,30.05,SSE,148,2.8,9.2,4,0.00,CLR,,0.00,WeatherDisplay:10.37,2013-04-08 18:46:00,
2013-04-08 14:48:00,79.4,-2.3,30.05,SE,136,4.1,9.2,4,0.00,CLR,,0.00,WeatherDisplay:10.37,2013-04-08 18:48:00,
2013-04-08 14:52:00,80.0,-1.9,30.05,East,100,4.3,11.5,4,0.00,CLR,,0.00,WeatherDisplay:10.37,2013-04-08 18:52:00,
2013-04-08 14:53:00,79.2,-2.4,30.05,South,176,2.1,6.9,4,0.00,CLR,,0.00,WeatherDisplay:10.37,2013-04-08 18:53:00,
2013-04-08 14:57:00,77.0,0.8,30.05,East,93,10.9,15.0,5,0.00,CLR,,0.00,WeatherDisplay:10.37,2013-04-08 18:57:00,
2013-04-08 14:58:00,77.2,0.9,30.04,ESE,102,10.4,18.4,5,0.00,CLR,,0.00,WeatherDisplay:10.37,2013-04-08 18:58:00,
2013-04-08 15:02:00,77.3,1.0,30.04,SE,140,5.5,9.2,5,0.00,CLR,,0.00,WeatherDisplay:10.37,2013-04-08 19:02:00,
2013-04-08 15:03:00,78.1,1.6,30.04,SE,140,2.8,9.2,5,0.00,CLR,,0.00,WeatherDisplay:10.37,2013-04-08 19:03:00,
2013-04-08 15:08:00,77.8,1.4,30.04,ESE,104,3.3,6.9,5,0.00,CLR,,0.00,WeatherDisplay:10.37,2013-04-08 19:08:00,
2013-04-08 15:09:00,78.2,1.6,30.04,South,169,1.3,6.9,5,0.00,CLR,,0.00,WeatherDisplay:10.37,2013-04-08 19:09:00,
2013-04-08 15:13:00,78.4,-3.0,30.04,South,179,1.4,8.1,4,0.00,CLR,,0.00,WeatherDisplay:10.37,2013-04-08 19:13:00,
2013-04-08 15:14:00,79.3,-2.3,30.05,SSE,167,4.3,4.4,4,0.00,CLR,,0.00,WeatherDisplay:10.37,2013-04-08 19:14:00,
2013-04-08 15:18:00,80.1,-1.8,30.04,SSE,164,5.9,8.1,4,0.00,CLR,,0.00,WeatherDisplay:10.37,2013-04-08 19:18:00,
2013-04-08 15:19:00,79.8,-2.0,30.04,ESE,120,3.4,6.9,4,0.00,CLR,,0.00,WeatherDisplay:10.37,2013-04-08 19:19:00,
2013-04-08 15:20:00,79.9,-1.9,30.04,South,182,4.0,6.9,4,0.00,CLR,,0.00,WeatherDisplay:10.37,2013-04-08 19:20:00,
2013-04-08 15:23:00,77.7,1.3,30.04,SSE,168,5.3,15.4,5,0.00,CLR,,0.00,WeatherDisplay:10.37,2013-04-08 19:23:00,
2013-04-08 15:25:00,77.3,1.0,30.04,West,270,5.0,17.3,5,0.00,CLR,,0.00,WeatherDisplay:10.37,2013-04-08 19:25:00,
2013-04-08 15:28:00,76.8,0.7,30.04,SE,143,7.6,12.7,5,0.00,CLR,,0.00,WeatherDisplay:10.37,2013-04-08 19:28:00,
2013-04-08 15:30:00,77.2,0.9,30.04,SSE,167,7.6,16.1,5,0.00,CLR,,0.00,WeatherDisplay:10.37,2013-04-08 19:30:00,
2013-04-08 15:31:00,78.3,1.7,30.04,SE,130,5.2,16.1,5,0.00,CLR,,0.00,WeatherDisplay:10.37,2013-04-08 19:31:00,
2013-04-08 15:33:00,77.7,-3.4,30.04,SSE,162,3.2,6.9,4,0.00,CLR,,0.00,WeatherDisplay:10.37,2013-04-08 19:33:00,
2013-04-08 15:35:00,77.3,-3.7,30.04,East,92,2.4,5.8,4,0.00,CLR,,0.00,WeatherDisplay:10.37,2013-04-08 19:35:00,
2013-04-08 15:36:00,78.3,-3.0,30.04,East,82,1.8,3.5,4,0.00,CLR,,0.00,WeatherDisplay:10.37,2013-04-08 19:36:00,
2013-04-08 15:40:00,77.9,-3.3,30.03,SE,144,4.9,10.4,4,0.00,CLR,,0.00,WeatherDisplay:10.37,2013-04-08 19:40:00,
2013-04-08 15:41:00,78.1,-3.2,30.03,South,171,1.4,10.4,4,0.00,CLR,,0.00,WeatherDisplay:10.37,2013-04-08 19:41:00,
2013-04-08 15:42:00,78.2,1.6,30.03,SSW,205,2.2,7.3,5,0.00,CLR,,0.00,WeatherDisplay:10.37,2013-04-08 19:42:00,
2013-04-08 15:45:00,79.0,2.2,30.03,SSE,147,1.2,4.6,5,0.00,CLR,,0.00,WeatherDisplay:10.37,2013-04-08 19:45:00,
2013-04-08 15:47:00,79.7,-2.1,30.03,SW,217,7.5,10.4,4,0.00,CLR,,0.00,WeatherDisplay:10.37,2013-04-08 19:47:00,
2013-04-08 15:48:00,78.4,-3.0,30.03,SSW,193,6.3,10.4,4,0.00,CLR,,0.00,WeatherDisplay:10.37,2013-04-08 19:48:00,
2013-04-08 15:50:00,77.7,-3.4,30.03,SE,134,5.4,11.5,4,0.00,CLR,,0.00,WeatherDisplay:10.37,2013-04-08 19:50:00,
2013-04-08 15:51:00,79.1,-2.5,30.03,NE,35,5.5,11.5,4,0.00,CLR,,0.00,WeatherDisplay:10.37,2013-04-08 19:51:00,
2013-04-08 15:52:00,77.5,-3.6,30.03,ESE,114,2.9,12.7,4,0.00,CLR,,0.00,WeatherDisplay:10.37,2013-04-08 19:52:00,
2013-04-08 15:54:00,78.2,-3.1,30.02,SE,130,3.7,6.9,4,0.00,CLR,,0.00,WeatherDisplay:10.37,2013-04-08 19:54:00,
2013-04-08 15:56:00,78.2,-3.1,30.02,NE,49,7.1,10.4,4,0.00,CLR,,0.00,WeatherDisplay:10.37,2013-04-08 19:56:00,
2013-04-08 15:57:00,77.9,-3.3,30.02,East,92,7.3,11.3,4,0.00,CLR,,0.00,WeatherDisplay:10.37,2013-04-08 19:57:00,
2013-04-08 15:59:00,78.1,-3.2,30.02,SSE,158,6.7,11.5,4,0.00,CLR,,0.00,WeatherDisplay:10.37,2013-04-08 19:59:00,
2013-04-08 16:02:00,77.3,-3.7,30.02,South,182,3.8,9.2,4,0.00,CLR,,0.00,WeatherDisplay:10.37,2013-04-08 20:02:00,
2013-04-08 16:03:00,78.4,-3.0,30.02,SE,127,1.7,9.2,4,0.00,CLR,,0.00,WeatherDisplay:10.37,2013-04-08 20:03:00,
2013-04-08 16:06:00,80.1,-1.8,30.02,South,171,3.8,10.4,4,0.00,CLR,,0.00,WeatherDisplay:10.37,2013-04-08 20:06:00,
2013-04-08 16:07:00,80.9,-1.2,30.02,East,89,2.3,6.9,4,0.00,CLR,,0.00,WeatherDisplay:10.37,2013-04-08 20:07:00,
2013-04-08 16:08:00,79.4,-2.3,30.02,East,89,1.9,6.9,4,0.00,CLR,,0.00,WeatherDisplay:10.37,2013-04-08 20:08:00,
2013-04-08 16:11:00,80.4,-1.6,30.02,South,169,4.9,7.0,4,0.00,CLR,,0.00,WeatherDisplay:10.37,2013-04-08 20:11:00,
2013-04-08 16:12:00,81.4,-0.9,30.02,SSW,212,5.6,10.4,4,0.00,CLR,,0.00,WeatherDisplay:10.37,2013-04-08 20:12:00,
2013-04-08 16:13:00,81.3,-1.0,30.02,WNW,292,5.8,10.4,4,0.00,CLR,,0.00,WeatherDisplay:10.37,2013-04-08 20:13:00,
2013-04-08 16:17:00,78.3,-3.0,30.02,SW,220,4.3,12.7,4,0.00,CLR,,0.00,WeatherDisplay:10.37,2013-04-08 20:17:00,
2013-04-08 16:18:00,78.4,1.8,30.02,SW,222,6.8,12.7,5,0.00,CLR,,0.00,WeatherDisplay:10.37,2013-04-08 20:18:00,
2013-04-08 16:23:00,78.7,-2.8,30.02,SE,145,4.8,7.1,4,0.00,CLR,,0.00,WeatherDisplay:10.37,2013-04-08 20:23:00,
2013-04-08 16:28:00,77.9,-3.3,30.02,SSW,202,8.0,15.0,4,0.00,CLR,,0.00,WeatherDisplay:10.37,2013-04-08 20:28:00,
2013-04-08 16:33:00,77.9,-3.3,30.02,ESE,114,3.7,13.8,4,0.00,CLR,,0.00,WeatherDisplay:10.37,2013-04-08 20:33:00,
2013-04-08 16:34:00,78.2,-3.1,30.02,SSE,157,5.1,15.3,4,0.00,CLR,,0.00,WeatherDisplay:10.37,2013-04-08 20:34:00,
2013-04-08 16:38:00,78.7,-2.8,30.02,SW,215,5.4,13.1,4,0.00,CLR,,0.00,WeatherDisplay:10.37,2013-04-08 20:38:00,
2013-04-08 16:40:00,77.4,-3.7,30.02,SSW,200,7.9,15.0,4,0.00,CLR,,0.00,WeatherDisplay:10.37,2013-04-08 20:40:00,
2013-04-08 16:43:00,78.0,-3.2,30.02,SE,136,8.6,13.8,4,0.00,CLR,,0.00,WeatherDisplay:10.37,2013-04-08 20:43:00,
2013-04-08 16:45:00,79.0,-2.5,30.02,South,186,8.8,12.7,4,0.00,CLR,,0.00,WeatherDisplay:10.37,2013-04-08 20:45:00,
2013-04-08 16:48:00,79.2,-2.4,30.02,SSW,199,0.7,6.9,4,0.00,CLR,,0.00,WeatherDisplay:10.37,2013-04-08 20:48:00,
2013-04-08 16:50:00,78.4,-3.0,30.02,SSW,208,6.8,12.7,4,0.00,CLR,,0.00,WeatherDisplay:10.37,2013-04-08 20:50:00,
2013-04-08 16:53:00,77.5,-3.6,30.02,South,174,6.3,12.7,4,0.00,CLR,,0.00,WeatherDisplay:10.37,2013-04-08 20:53:00,
2013-04-08 16:54:00,78.4,-3.0,30.02,SE,130,5.5,9.2,4,0.00,CLR,,0.00,WeatherDisplay:10.37,2013-04-08 20:54:00,
2013-04-08 16:55:00,77.7,-3.4,30.02,SE,141,5.4,8.8,4,0.00,CLR,,0.00,WeatherDisplay:10.37,2013-04-08 20:55:00,
2013-04-08 16:58:00,77.1,-3.9,30.02,South,169,5.0,8.5,4,0.00,CLR,,0.00,WeatherDisplay:10.37,2013-04-08 20:58:00,
2013-04-08 16:59:00,79.1,-2.5,30.02,ENE,72,2.3,12.7,4,0.00,CLR,,0.00,WeatherDisplay:10.37,2013-04-08 20:59:00,
2013-04-08 17:01:00,79.3,-2.3,30.02,SW,215,5.2,13.9,4,0.00,CLR,,0.00,WeatherDisplay:10.37,2013-04-08 21:01:00,
2013-04-08 17:03:00,77.5,1.2,30.02,SE,137,7.0,9.2,5,0.00,CLR,,0.00,WeatherDisplay:10.37,2013-04-08 21:03:00,
2013-04-08 17:04:00,77.4,-3.7,30.02,WNW,288,4.9,9.2,4,0.00,CLR,,0.00,WeatherDisplay:10.37,2013-04-08 21:04:00,
2013-04-08 17:06:00,77.3,-3.7,30.02,South,181,3.4,10.3,4,0.00,CLR,,0.00,WeatherDisplay:10.37,2013-04-08 21:06:00,
2013-04-08 17:09:00,79.1,-2.5,30.02,SSE,167,9.0,15.0,4,0.00,CLR,,0.00,WeatherDisplay:10.37,2013-04-08 21:09:00,
2013-04-08 17:12:00,78.2,-3.1,30.02,West,274,3.7,6.9,4,0.00,CLR,,0.00,WeatherDisplay:10.37,2013-04-08 21:12:00,
2013-04-08 17:14:00,78.7,-2.8,30.02,ESE,114,4.6,8.1,4,0.00,CLR,,0.00,WeatherDisplay:10.37,2013-04-08 21:14:00,
2013-04-08 17:15:00,78.4,-3.0,30.02,ESE,114,2.3,8.1,4,0.00,CLR,,0.00,WeatherDisplay:10.37,2013-04-08 21:15:00,
2013-04-08 17:17:00,78.3,-3.0,30.02,ENE,72,0.0,4.6,4,0.00,CLR,,0.00,WeatherDisplay:10.37,2013-04-08 21:17:00,
2013-04-08 17:19:00,78.2,-3.1,30.02,SSW,200,6.9,10.4,4,0.00,CLR,,0.00,WeatherDisplay:10.37,2013-04-08 21:19:00,
2013-04-08 17:20:00,78.1,-3.2,30.02,SSW,193,5.4,10.4,4,0.00,CLR,,0.00,WeatherDisplay:10.37,2013-04-08 21:20:00,
2013-04-08 17:22:00,77.4,-3.7,30.02,WSW,254,8.0,13.8,4,0.00,CLR,,0.00,WeatherDisplay:10.37,2013-04-08 21:22:00,
2013-04-08 17:24:00,77.7,1.3,30.02,SSE,154,3.6,10.7,5,0.00,CLR,,0.00,WeatherDisplay:10.37,2013-04-08 21:24:00,
2013-04-08 17:25:00,78.0,1.5,30.02,South,189,4.5,6.9,5,0.00,CLR,,0.00,WeatherDisplay:10.37,2013-04-08 21:25:00,
2013-04-08 17:27:00,77.7,1.3,30.01,SW,215,2.3,9.2,5,0.00,CLR,,0.00,WeatherDisplay:10.37,2013-04-08 21:27:00,
2013-04-08 17:30:00,77.8,1.4,30.02,South,184,7.6,12.7,5,0.00,CLR,,0.00,WeatherDisplay:10.37,2013-04-08 21:30:00,
2013-04-08 17:31:00,77.8,-3.4,30.02,South,184,8.5,12.7,4,0.00,CLR,,0.00,WeatherDisplay:10.37,2013-04-08 21:31:00,
2013-04-08 17:33:00,77.9,-3.3,30.02,ESE,114,4.1,8.1,4,0.00,CLR,,0.00,WeatherDisplay:10.37,2013-04-08 21:33:00,
2013-04-08 17:35:00,77.5,1.2,30.02,SW,215,5.9,9.2,5,0.00,CLR,,0.00,WeatherDisplay:10.37,2013-04-08 21:35:00,
2013-04-08 17:37:00,78.0,1.5,30.02,WSW,240,2.5,4.6,5,0.00,CLR,,0.00,WeatherDisplay:10.37,2013-04-08 21:37:00,
2013-04-08 17:38:00,78.7,2.0,30.02,WSW,240,0.2,4.6,5,0.00,CLR,,0.00,WeatherDisplay:10.37,2013-04-08 21:38:00,
2013-04-08 17:40:00,77.8,1.4,30.02,SSW,213,7.7,12.7,5,0.00,CLR,,0.00,WeatherDisplay:10.37,2013-04-08 21:40:00,
2013-04-08 17:42:00,77.3,1.0,30.02,SSW,210,8.3,15.0,5,0.00,CLR,,0.00,WeatherDisplay:10.37,2013-04-08 21:42:00,
2013-04-08 17:44:00,77.1,4.8,30.02,SW,219,7.8,11.5,6,0.00,CLR,,0.00,WeatherDisplay:10.37,2013-04-08 21:44:00,
2013-04-08 17:45:00,77.0,4.7,30.02,SSW,205,8.7,15.0,6,0.00,CLR,,0.00,WeatherDisplay:10.37,2013-04-08 21:45:00,
2013-04-08 17:46:00,77.1,4.8,30.02,South,176,9.0,12.7,6,0.00,CLR,,0.00,WeatherDisplay:10.37,2013-04-08 21:46:00,
2013-04-08 17:48:00,77.0,4.7,30.02,NE,52,4.4,6.9,6,0.00,CLR,,0.00,WeatherDisplay:10.37,2013-04-08 21:48:00,
2013-04-08 17:50:00,76.8,4.6,30.02,WSW,239,3.3,9.2,6,0.00,CLR,,0.00,WeatherDisplay:10.37,2013-04-08 21:50:00,
2013-04-08 17:51:00,76.9,4.7,30.02,WSW,237,2.9,9.2,6,0.00,CLR,,0.00,WeatherDisplay:10.37,2013-04-08 21:51:00,
2013-04-08 17:53:00,76.9,4.7,30.02,SSW,203,4.0,8.1,6,0.00,CLR,,0.00,WeatherDisplay:10.37,2013-04-08 21:53:00,
2013-04-08 17:55:00,76.7,4.5,30.02,SSW,205,5.5,11.2,6,0.00,CLR,,0.00,WeatherDisplay:10.37,2013-04-08 21:55:00,
2013-04-08 17:56:00,76.8,4.6,30.02,WSW,256,4.7,11.5,6,0.00,CLR,,0.00,WeatherDisplay:10.37,2013-04-08 21:56:00,
2013-04-08 17:57:00,76.7,4.5,30.02,South,169,5.0,11.5,6,0.00,CLR,,0.00,WeatherDisplay:10.37,2013-04-08 21:57:00,
2013-04-08 17:58:00,76.6,4.5,30.02,SE,134,3.6,5.8,6,0.00,CLR,,0.00,WeatherDisplay:10.37,2013-04-08 21:58:00,
2013-04-08 18:00:00,76.7,4.5,30.02,SW,215,4.2,8.8,6,0.00,CLR,,0.00,WeatherDisplay:10.37,2013-04-08 22:00:00,
2013-04-08 18:02:00,76.9,4.7,30.02,SW,223,4.6,9.2,6,0.00,CLR,,0.00,WeatherDisplay:10.37,2013-04-08 22:02:00,
2013-04-08 18:04:00,76.9,4.7,30.02,WSW,246,2.6,6.9,6,0.00,CLR,,0.00,WeatherDisplay:10.37,2013-04-08 22:04:00,
2013-04-08 18:05:00,76.8,4.6,30.02,SW,215,7.3,12.7,6,0.00,CLR,,0.00,WeatherDisplay:10.37,2013-04-08 22:05:00,
2013-04-08 18:07:00,77.2,4.9,30.02,SE,126,3.6,10.4,6,0.00,CLR,,0.00,WeatherDisplay:10.37,2013-04-08 22:07:00,
2013-04-08 18:09:00,77.2,4.9,30.02,North,349,4.3,9.2,6,0.00,CLR,,0.00,WeatherDisplay:10.37,2013-04-08 22:09:00,
2013-04-08 18:10:00,77.3,5.0,30.02,NNW,346,0.9,5.8,6,0.00,CLR,,0.00,WeatherDisplay:10.37,2013-04-08 22:10:00,
2013-04-08 18:14:00,77.0,4.7,30.02,South,179,3.3,8.1,6,0.00,CLR,,0.00,WeatherDisplay:10.37,2013-04-08 22:14:00,
2013-04-08 18:15:00,76.8,4.6,30.02,SSE,164,5.9,9.9,6,0.00,CLR,,0.00,WeatherDisplay:10.37,2013-04-08 22:15:00,
2013-04-08 18:16:00,76.9,4.7,30.02,SE,128,4.6,12.7,6,0.00,CLR,,0.00,WeatherDisplay:10.37,2013-04-08 22:16:00,
2013-04-08 18:19:00,76.7,4.5,30.02,South,185,6.6,11.1,6,0.00,CLR,,0.00,WeatherDisplay:10.37,2013-04-08 22:19:00,
2013-04-08 18:20:00,76.8,8.0,30.02,SSE,168,7.7,11.5,7,0.00,CLR,,0.00,WeatherDisplay:10.37,2013-04-08 22:20:00,
2013-04-08 18:21:00,76.4,7.7,30.02,SE,130,5.0,10.4,7,0.00,CLR,,0.00,WeatherDisplay:10.37,2013-04-08 22:21:00,
2013-04-08 18:24:00,76.7,7.9,30.02,SE,138,3.9,9.2,7,0.00,CLR,,0.00,WeatherDisplay:10.37,2013-04-08 22:24:00,
2013-04-08 18:25:00,76.7,7.9,30.02,SSE,151,0.6,6.9,7,0.00,CLR,,0.00,WeatherDisplay:10.37,2013-04-08 22:25:00,
2013-04-08 18:26:00,76.4,7.7,30.02,SSE,151,0.0,0.0,7,0.00,CLR,,0.00,WeatherDisplay:10.37,2013-04-08 22:26:00,
2013-04-08 18:30:00,76.3,7.6,30.02,SSW,208,8.4,15.0,7,0.00,CLR,,0.00,WeatherDisplay:10.37,2013-04-08 22:30:00,
2013-04-08 18:31:00,76.8,8.0,30.03,South,174,3.3,8.1,7,0.00,CLR,,0.00,WeatherDisplay:10.37,2013-04-08 22:31:00,
2013-04-08 18:32:00,76.2,7.5,30.03,WSW,248,2.5,9.8,7,0.00,CLR,,0.00,WeatherDisplay:10.37,2013-04-08 22:32:00,
2013-04-08 18:35:00,76.2,7.5,30.03,SW,217,0.2,8.1,7,0.00,CLR,,0.00,WeatherDisplay:10.37,2013-04-08 22:35:00,
2013-04-08 18:37:00,76.0,7.4,30.03,SSE,160,5.3,8.1,7,0.00,CLR,,0.00,WeatherDisplay:10.37,2013-04-08 22:37:00,
2013-04-08 18:40:00,76.5,7.8,30.03,SE,144,1.0,5.7,7,0.00,CLR,,0.00,WeatherDisplay:10.37,2013-04-08 22:40:00,
2013-04-08 18:41:00,76.1,7.5,30.03,SW,227,2.7,8.1,7,0.00,CLR,,0.00,WeatherDisplay:10.37,2013-04-08 22:41:00,
2013-04-08 18:43:00,76.3,7.6,30.03,WSW,237,1.9,6.9,7,0.00,CLR,,0.00,WeatherDisplay:10.37,2013-04-08 22:43:00,
2013-04-08 18:45:00,76.7,7.9,30.03,SSE,148,2.0,8.1,7,0.00,CLR,,0.00,WeatherDisplay:10.37,2013-04-08 22:45:00,
2013-04-08 18:47:00,76.9,8.1,30.03,WSW,256,3.0,9.2,7,0.00,CLR,,0.00,WeatherDisplay:10.37,2013-04-08 22:47:00,
2013-04-08 18:48:00,76.8,8.0,30.03,West,270,4.4,8.1,7,0.00,CLR,,0.00,WeatherDisplay:10.37,2013-04-08 22:48:00,
2013-04-08 18:50:00,76.8,8.0,30.03,South,171,4.0,7.9,7,0.00,CLR,,0.00,WeatherDisplay:10.37,2013-04-08 22:50:00,
2013-04-08 18:52:00,76.9,8.1,30.03,WSW,240,7.2,9.2,7,0.00,CLR,,0.00,WeatherDisplay:10.37,2013-04-08 22:52:00,
2013-04-08 18:53:00,77.0,8.1,30.03,SE,134,6.4,10.4,7,0.00,CLR,,0.00,WeatherDisplay:10.37,2013-04-08 22:53:00,
2013-04-08 18:55:00,76.9,8.1,30.04,SE,134,6.3,10.5,7,0.00,CLR,,0.00,WeatherDisplay:10.37,2013-04-08 22:55:00,
2013-04-08 18:57:00,76.6,7.8,30.03,SE,130,6.7,12.4,7,0.00,CLR,,0.00,WeatherDisplay:10.37,2013-04-08 22:57:00,
2013-04-08 18:58:00,76.7,7.9,30.03,SW,217,7.4,12.7,7,0.00,CLR,,0.00,WeatherDisplay:10.37,2013-04-08 22:58:00,
2013-04-08 19:00:00,76.6,7.8,30.03,SSW,209,6.6,11.5,7,0.00,CLR,,0.00,WeatherDisplay:10.37,2013-04-08 23:00:00,
2013-04-08 19:02:00,76.4,10.7,30.03,South,169,5.1,9.2,8,0.00,CLR,,0.00,WeatherDisplay:10.37,2013-04-08 23:02:00,
2013-04-08 19:03:00,76.5,10.7,30.04,South,186,3.5,9.2,8,0.00,CLR,,0.00,WeatherDisplay:10.37,2013-04-08 23:03:00,
2013-04-08 19:06:00,76.1,10.4,30.04,East,96,7.3,8.1,8,0.00,CLR,,0.00,WeatherDisplay:10.37,2013-04-08 23:06:00,
2013-04-08 19:08:00,76.1,10.4,30.04,SSW,202,5.8,11.5,8,0.00,CLR,,0.00,WeatherDisplay:10.37,2013-04-08 23:08:00,
2013-04-08 19:11:00,76.6,7.8,30.04,SE,141,0.0,8.1,7,0.00,CLR,,0.00,WeatherDisplay:10.37,2013-04-08 23:11:00,
2013-04-08 19:13:00,76.4,7.7,30.04,SE,141,0.0,0.0,7,0.00,CLR,,0.00,WeatherDisplay:10.37,2013-04-08 23:13:00,
2013-04-08 19:14:00,76.4,7.7,30.03,SW,220,1.4,7.0,7,0.00,CLR,,0.00,WeatherDisplay:10.37,2013-04-08 23:14:00,
2013-04-08 19:16:00,76.2,10.5,30.04,SE,133,5.2,9.2,8,0.00,CLR,,0.00,WeatherDisplay:10.37,2013-04-08 23:16:00,
2013-04-08 19:19:00,76.0,10.4,30.04,SSE,151,0.1,3.5,8,0.00,CLR,,0.00,WeatherDisplay:10.37,2013-04-08 23:19:00,
2013-04-08 19:22:00,75.4,12.6,30.04,West,270,6.0,12.7,9,0.00,CLR,,0.00,WeatherDisplay:10.37,2013-04-08 23:22:00,
2013-04-08 19:24:00,75.1,12.4,30.04,West,261,1.7,11.5,9,0.00,CLR,,0.00,WeatherDisplay:10.37,2013-04-08 23:24:00,
2013-04-08 19:27:00,74.8,14.5,30.04,South,176,2.4,6.9,10,0.00,CLR,,0.00,WeatherDisplay:10.37,2013-04-08 23:27:00,
2013-04-08 19:29:00,74.7,14.5,30.04,SSW,203,7.9,11.5,10,0.00,CLR,,0.00,WeatherDisplay:10.37,2013-04-08 23:29:00,
2013-04-08 19:30:00,74.6,14.4,30.04,SSW,206,8.0,12.7,10,0.00,CLR,,0.00,WeatherDisplay:10.37,2013-04-08 23:30:00,
2013-04-08 19:32:00,74.7,14.5,30.04,SSE,155,2.3,3.5,10,0.00,CLR,,0.00,WeatherDisplay:10.37,2013-04-08 23:32:00,
2013-04-08 19:34:00,74.7,16.6,30.04,West,281,4.3,8.1,11,0.00,CLR,,0.00,WeatherDisplay:10.37,2013-04-08 23:34:00,
2013-04-08 19:35:00,74.6,16.6,30.04,SW,215,5.0,8.1,11,0.00,CLR,,0.00,WeatherDisplay:10.37,2013-04-08 23:35:00,
2013-04-08 19:38:00,74.7,16.6,30.04,SW,227,2.9,8.1,11,0.00,CLR,,0.00,WeatherDisplay:10.37,2013-04-08 23:38:00,
2013-04-08 19:40:00,74.7,16.6,30.04,WSW,257,1.7,6.9,11,0.00,CLR,,0.00,WeatherDisplay:10.37,2013-04-08 23:40:00,
2013-04-08 19:43:00,74.6,16.6,30.04,ESE,106,0.0,3.5,11,0.00,CLR,,0.00,WeatherDisplay:10.37,2013-04-08 23:43:00,
2013-04-08 19:45:00,74.5,18.5,30.04,SW,232,5.5,9.2,12,0.00,CLR,,0.00,WeatherDisplay:10.37,2013-04-08 23:45:00,
2013-04-08 19:48:00,74.2,16.3,30.04,WSW,253,6.0,12.7,11,0.00,CLR,,0.00,WeatherDisplay:10.37,2013-04-08 23:48:00,
2013-04-08 19:50:00,74.4,18.4,30.04,SSE,150,0.6,3.2,12,0.00,CLR,,0.00,WeatherDisplay:10.37,2013-04-08 23:50:00,
2013-04-08 19:51:00,74.3,18.4,30.04,SE,145,0.8,4.2,12,0.00,CLR,,0.00,WeatherDisplay:10.37,2013-04-08 23:51:00,
2013-04-08 19:53:00,74.6,18.6,30.04,SW,229,0.0,0.0,12,0.00,CLR,,0.00,WeatherDisplay:10.37,2013-04-08 23:53:00,
2013-04-08 19:55:00,74.1,18.2,30.04,South,182,4.8,8.5,12,0.00,CLR,,0.00,WeatherDisplay:10.37,2013-04-08 23:55:00,
2013-04-08 19:58:00,74.2,18.3,30.04,South,182,3.0,8.1,12,0.00,CLR,,0.00,WeatherDisplay:10.37,2013-04-08 23:58:00,
2013-04-08 20:00:00,73.8,18.0,30.04,SSE,157,0.3,5.8,12,0.00,CLR,,0.00,WeatherDisplay:10.37,2013-04-09 00:00:00,
2013-04-08 20:03:00,73.9,18.0,30.04,SW,224,2.2,6.9,12,0.00,CLR,,0.00,WeatherDisplay:10.37,2013-04-09 00:03:00,
2013-04-08 20:05:00,73.8,18.0,30.04,South,179,5.2,9.2,12,0.00,CLR,,0.00,WeatherDisplay:10.37,2013-04-09 00:05:00,
2013-04-08 20:08:00,73.9,18.0,30.04,ESE,114,1.2,5.8,12,0.00,CLR,,0.00,WeatherDisplay:10.37,2013-04-09 00:08:00,
2013-04-08 20:10:00,73.7,17.9,30.04,SE,137,2.0,4.6,12,0.00,CLR,,0.00,WeatherDisplay:10.37,2013-04-09 00:10:00,
2013-04-08 20:13:00,73.7,17.9,30.04,South,169,1.1,8.1,12,0.00,CLR,,0.00,WeatherDisplay:10.37,2013-04-09 00:13:00,
2013-04-08 20:15:00,73.7,17.9,30.04,SE,134,4.1,6.9,12,0.00,CLR,,0.00,WeatherDisplay:10.37,2013-04-09 00:15:00,
2013-04-08 20:19:00,73.6,17.8,30.04,SSE,157,3.1,6.9,12,0.00,CLR,,0.00,WeatherDisplay:10.37,2013-04-09 00:19:00,
2013-04-08 20:20:00,73.6,17.8,30.05,SSE,157,0.0,5.8,12,0.00,CLR,,0.00,WeatherDisplay:10.37,2013-04-09 00:20:00,
2013-04-08 20:24:00,73.5,17.7,30.05,West,281,0.0,3.5,12,0.00,CLR,,0.00,WeatherDisplay:10.37,2013-04-09 00:24:00,
2013-04-08 20:25:00,73.2,17.5,30.06,West,281,0.0,0.0,12,0.00,CLR,,0.00,WeatherDisplay:10.37,2013-04-09 00:25:00,
2013-04-08 20:26:00,73.3,17.6,30.06,West,281,0.0,0.0,12,0.00,CLR,,0.00,WeatherDisplay:10.37,2013-04-09 00:26:00,
2013-04-08 20:29:00,73.5,17.7,30.06,SSE,155,0.0,4.6,12,0.00,CLR,,0.00,WeatherDisplay:10.37,2013-04-09 00:29:00,
2013-04-08 20:31:00,73.1,19.3,30.06,East,99,1.8,5.8,13,0.00,CLR,,0.00,WeatherDisplay:10.37,2013-04-09 00:31:00,
2013-04-08 20:34:00,73.1,19.3,30.06,South,189,1.3,3.5,13,0.00,CLR,,0.00,WeatherDisplay:10.37,2013-04-09 00:34:00,
2013-04-08 20:36:00,72.9,19.1,30.06,SSW,199,1.9,4.6,13,0.00,CLR,,0.00,WeatherDisplay:10.37,2013-04-09 00:36:00,
2013-04-08 20:39:00,72.9,19.1,30.06,SSW,199,0.0,0.0,13,0.00,CLR,,0.00,WeatherDisplay:10.37,2013-04-09 00:39:00,
2013-04-08 20:41:00,72.8,19.0,30.06,SW,217,0.9,5.8,13,0.00,CLR,,0.00,WeatherDisplay:10.37,2013-04-09 00:41:00,
2013-04-08 20:42:00,72.6,18.9,30.06,SSW,192,2.8,6.9,13,0.00,CLR,,0.00,WeatherDisplay:10.37,2013-04-09 00:42:00,
2013-04-08 20:45:00,72.7,19.0,30.06,SE,126,0.0,0.0,13,0.00,CLR,,0.00,WeatherDisplay:10.37,2013-04-09 00:45:00,
2013-04-08 20:46:00,72.5,18.8,30.07,SE,126,0.0,0.0,13,0.00,CLR,,0.00,WeatherDisplay:10.37,2013-04-09 00:46:00,
2013-04-08 20:47:00,72.7,19.0,30.07,SE,126,0.0,0.0,13,0.00,CLR,,0.00,WeatherDisplay:10.37,2013-04-09 00:47:00,
2013-04-08 20:50:00,72.5,18.8,30.07,SE,126,0.0,0.0,13,0.00,CLR,,0.00,WeatherDisplay:10.37,2013-04-09 00:50:00,
2013-04-08 20:52:00,72.3,20.4,30.06,SE,126,0.0,0.0,14,0.00,CLR,,0.00,WeatherDisplay:10.37,2013-04-09 00:52:00,
2013-04-08 20:55:00,72.4,20.5,30.07,SE,126,0.0,0.0,14,0.00,CLR,,0.00,WeatherDisplay:10.37,2013-04-09 00:55:00,
2013-04-08 20:57:00,72.1,20.2,30.06,SE,126,0.0,0.0,14,0.00,CLR,,0.00,WeatherDisplay:10.37,2013-04-09 00:57:00,
2013-04-08 20:58:00,72.4,20.5,30.06,SE,126,0.0,0.0,14,0.00,CLR,,0.00,WeatherDisplay:10.37,2013-04-09 00:58:00,
2013-04-08 21:00:00,71.8,20.0,30.06,SE,126,0.0,0.0,14,0.00,CLR,,0.00,WeatherDisplay:10.37,2013-04-09 01:00:00,
2013-04-08 21:02:00,71.9,20.1,30.07,SSW,198,0.6,3.2,14,0.00,CLR,,0.00,WeatherDisplay:10.37,2013-04-09 01:02:00,
2013-04-08 21:03:00,72.0,20.1,30.07,SSW,198,1.0,3.5,14,0.00,CLR,,0.00,WeatherDisplay:10.37,2013-04-09 01:03:00,
2013-04-08 21:05:00,72.0,20.1,30.06,SSE,162,0.0,4.6,14,0.00,CLR,,0.00,WeatherDisplay:10.37,2013-04-09 01:05:00,
2013-04-08 21:07:00,72.3,20.4,30.07,SSE,162,0.0,0.0,14,0.00,CLR,,0.00,WeatherDisplay:10.37,2013-04-09 01:07:00,
2013-04-08 21:08:00,72.4,20.5,30.07,SSE,162,0.0,0.0,14,0.00,CLR,,0.00,WeatherDisplay:10.37,2013-04-09 01:08:00,
2013-04-08 21:12:00,72.1,20.2,30.06,SSE,162,0.0,0.0,14,0.00,CLR,,0.00,WeatherDisplay:10.37,2013-04-09 01:12:00,
2013-04-08 21:13:00,71.7,19.9,30.06,SSE,162,0.0,0.0,14,0.00,CLR,,0.00,WeatherDisplay:10.37,2013-04-09 01:13:00,
2013-04-08 21:14:00,71.5,19.8,30.07,SSE,162,0.0,0.0,14,0.00,CLR,,0.00,WeatherDisplay:10.37,2013-04-09 01:14:00,
2013-04-08 21:17:00,71.3,21.2,30.06,SSE,162,0.0,0.0,15,0.00,CLR,,0.00,WeatherDisplay:10.37,2013-04-09 01:17:00,
2013-04-08 21:18:00,71.4,21.3,30.06,SSE,162,0.0,0.0,15,0.00,CLR,,0.00,WeatherDisplay:10.37,2013-04-09 01:18:00,
2013-04-08 21:19:00,71.3,21.2,30.06,ENE,76,0.9,3.5,15,0.00,CLR,,0.00,WeatherDisplay:10.37,2013-04-09 01:19:00,
2013-04-08 21:20:00,71.4,21.3,30.06,ENE,76,0.0,2.3,15,0.00,CLR,,0.00,WeatherDisplay:10.37,2013-04-09 01:20:00,
2013-04-08 21:22:00,70.9,20.9,30.07,ENE,76,0.0,0.0,15,0.00,CLR,,0.00,WeatherDisplay:10.37,2013-04-09 01:22:00,
2013-04-08 21:24:00,71.0,21.0,30.06,ENE,76,0.0,0.0,15,0.00,CLR,,0.00,WeatherDisplay:10.37,2013-04-09 01:24:00,
2013-04-08 21:25:00,71.1,21.1,30.06,ENE,76,0.0,0.0,15,0.00,CLR,,0.00,WeatherDisplay:10.37,2013-04-09 01:25:00,
2013-04-08 21:27:00,70.6,20.7,30.06,NE,47,0.2,2.3,15,0.00,CLR,,0.00,WeatherDisplay:10.37,2013-04-09 01:27:00,
2013-04-08 21:29:00,70.5,22.1,30.06,NE,47,0.0,0.0,16,0.00,CLR,,0.00,WeatherDisplay:10.37,2013-04-09 01:29:00,
2013-04-08 21:30:00,70.7,22.3,30.06,NE,47,0.0,0.0,16,0.00,CLR,,0.00,WeatherDisplay:10.37,2013-04-09 01:30:00,
2013-04-08 21:32:00,70.6,22.2,30.07,NE,47,0.0,0.0,16,0.00,CLR,,0.00,WeatherDisplay:10.37,2013-04-09 01:32:00,
2013-04-08 21:35:00,70.7,22.3,30.07,NE,47,0.0,0.0,16,0.00,CLR,,0.00,WeatherDisplay:10.37,2013-04-09 01:35:00,
2013-04-08 21:37:00,70.4,20.5,30.07,NE,47,0.0,0.0,15,0.00,CLR,,0.00,WeatherDisplay:10.37,2013-04-09 01:37:00,
2013-04-08 21:41:00,70.7,22.3,30.07,ESE,104,0.0,0.0,16,0.00,CLR,,0.00,WeatherDisplay:10.37,2013-04-09 01:41:00,
2013-04-08 21:42:00,70.6,20.7,30.07,WSW,240,3.9,7.8,15,0.00,CLR,,0.00,WeatherDisplay:10.37,2013-04-09 01:42:00,
2013-04-08 21:47:00,70.8,19.2,30.08,East,92,0.4,2.3,14,0.00,CLR,,0.00,WeatherDisplay:10.37,2013-04-09 01:47:00,
2013-04-08 21:48:00,71.1,21.1,30.08,East,92,0.2,4.7,15,0.00,CLR,,0.00,WeatherDisplay:10.37,2013-04-09 01:48:00,
2013-04-08 21:52:00,71.1,21.1,30.08,SE,138,0.2,4.6,15,0.00,CLR,,0.00,WeatherDisplay:10.37,2013-04-09 01:52:00,
2013-04-08 21:53:00,71.3,21.2,30.08,SE,138,0.0,0.0,15,0.00,CLR,,0.00,WeatherDisplay:10.37,2013-04-09 01:53:00,
2013-04-08 21:57:00,70.9,20.9,30.07,SE,138,0.0,0.0,15,0.00,CLR,,0.00,WeatherDisplay:10.37,2013-04-09 01:57:00,
2013-04-08 21:58:00,70.7,20.7,30.07,North,3,2.4,6.9,15,0.00,CLR,,0.00,WeatherDisplay:10.37,2013-04-09 01:58:00,
2013-04-08 22:02:00,70.9,20.9,30.07,SE,137,0.0,0.0,15,0.00,CLR,,0.00,WeatherDisplay:10.37,2013-04-09 02:02:00,
2013-04-08 22:03:00,70.5,20.6,30.07,SE,137,0.0,0.0,15,0.00,CLR,,0.00,WeatherDisplay:10.37,2013-04-09 02:03:00,
2013-04-08 22:07:00,70.2,21.9,30.07,SE,137,0.0,0.0,16,0.00,CLR,,0.00,WeatherDisplay:10.37,2013-04-09 02:07:00,
2013-04-08 22:08:00,70.1,21.8,30.07,SE,137,0.0,0.0,16,0.00,CLR,,0.00,WeatherDisplay:10.37,2013-04-09 02:08:00,
2013-04-08 22:10:00,70.1,21.8,30.07,SE,137,0.0,0.0,16,0.00,CLR,,0.00,WeatherDisplay:10.37,2013-04-09 02:10:00,
2013-04-08 22:13:00,69.5,24.1,30.06,SE,137,0.0,0.0,18,0.00,CLR,,0.00,WeatherDisplay:10.37,2013-04-09 02:13:00,
2013-04-08 22:15:00,68.4,24.5,30.06,SE,137,0.0,0.0,19,0.00,CLR,,0.00,WeatherDisplay:10.37,2013-04-09 02:15:00,
2013-04-08 22:16:00,68.6,25.9,30.06,SE,137,0.0,0.0,20,0.00,CLR,,0.00,WeatherDisplay:10.37,2013-04-09 02:16:00,
2013-04-08 22:18:00,68.0,26.6,30.07,SE,137,0.0,0.0,21,0.00,CLR,,0.00,WeatherDisplay:10.37,2013-04-09 02:18:00,
2013-04-08 22:20:00,67.8,27.5,30.07,SE,137,0.0,0.0,22,0.00,CLR,,0.00,WeatherDisplay:10.37,2013-04-09 02:20:00,
2013-04-08 22:21:00,67.6,27.4,30.07,SE,137,0.0,0.0,22,0.00,CLR,,0.00,WeatherDisplay:10.37,2013-04-09 02:21:00,
2013-04-08 22:23:00,67.3,27.1,30.07,SE,137,0.0,0.0,22,0.00,CLR,,0.00,WeatherDisplay:10.37,2013-04-09 02:23:00,
2013-04-08 22:24:00,67.2,27.0,30.07,SE,137,0.0,0.0,22,0.00,CLR,,0.00,WeatherDisplay:10.37,2013-04-09 02:24:00,
2013-04-08 22:25:00,67.6,27.4,30.08,SE,137,0.0,0.0,22,0.00,CLR,,0.00,WeatherDisplay:10.37,2013-04-09 02:25:00,
2013-04-08 22:27:00,67.0,26.9,30.08,SE,137,0.0,0.0,22,0.00,CLR,,0.00,WeatherDisplay:10.37,2013-04-09 02:27:00,
2013-04-08 22:28:00,67.3,28.2,30.08,SE,137,0.0,0.0,23,0.00,CLR,,0.00,WeatherDisplay:10.37,2013-04-09 02:28:00,
2013-04-08 22:29:00,67.2,28.1,30.08,SE,137,0.0,0.0,23,0.00,CLR,,0.00,WeatherDisplay:10.37,2013-04-09 02:29:00,
2013-04-08 22:32:00,67.1,28.0,30.08,SE,137,0.0,0.0,23,0.00,CLR,,0.00,WeatherDisplay:10.37,2013-04-09 02:32:00,
2013-04-08 22:33:00,67.3,28.2,30.08,SE,137,0.0,0.0,23,0.00,CLR,,0.00,WeatherDisplay:10.37,2013-04-09 02:33:00,
2013-04-08 22:37:00,67.3,27.1,30.08,SE,137,0.0,0.0,22,0.00,CLR,,0.00,WeatherDisplay:10.37,2013-04-09 02:37:00,
2013-04-08 22:39:00,67.1,28.0,30.08,SE,137,0.0,0.0,23,0.00,CLR,,0.00,WeatherDisplay:10.37,2013-04-09 02:39:00,
2013-04-08 22:42:00,66.8,27.8,30.08,SE,137,0.0,0.0,23,0.00,CLR,,0.00,WeatherDisplay:10.37,2013-04-09 02:42:00,
2013-04-08 22:43:00,67.2,28.1,30.08,SE,137,0.0,0.0,23,0.00,CLR,,0.00,WeatherDisplay:10.37,2013-04-09 02:43:00,
2013-04-08 22:44:00,66.8,27.8,30.08,SE,137,0.0,0.0,23,0.00,CLR,,0.00,WeatherDisplay:10.37,2013-04-09 02:44:00,
2013-04-08 22:47:00,66.7,28.7,30.08,SE,137,0.0,0.0,24,0.00,CLR,,0.00,WeatherDisplay:10.37,2013-04-09 02:47:00,
2013-04-08 22:48:00,66.5,28.6,30.08,SE,137,0.0,0.0,24,0.00,CLR,,0.00,WeatherDisplay:10.37,2013-04-09 02:48:00,
2013-04-08 22:49:00,66.7,28.7,30.08,SE,137,0.0,0.0,24,0.00,CLR,,0.00,WeatherDisplay:10.37,2013-04-09 02:49:00,
2013-04-08 22:52:00,66.0,29.1,30.08,SE,137,0.0,0.0,25,0.00,CLR,,0.00,WeatherDisplay:10.37,2013-04-09 02:52:00,
2013-04-08 22:53:00,66.5,29.6,30.08,SE,137,0.0,0.0,25,0.00,CLR,,0.00,WeatherDisplay:10.37,2013-04-09 02:53:00,
2013-04-08 22:55:00,66.2,29.3,30.08,SE,137,0.0,0.0,25,0.00,CLR,,0.00,WeatherDisplay:10.37,2013-04-09 02:55:00,
2013-04-08 22:58:00,65.9,29.1,30.08,SE,137,0.0,0.0,25,0.00,CLR,,0.00,WeatherDisplay:10.37,2013-04-09 02:58:00,
2013-04-08 23:00:00,65.7,30.8,30.08,SE,137,0.0,0.0,27,0.00,CLR,,0.00,WeatherDisplay:10.37,2013-04-09 03:00:00,
2013-04-08 23:03:00,65.3,31.3,30.08,SE,137,0.0,0.0,28,0.00,CLR,,0.00,WeatherDisplay:10.37,2013-04-09 03:03:00,
2013-04-08 23:04:00,65.0,31.9,30.08,SE,137,0.0,0.0,29,0.00,CLR,,0.00,WeatherDisplay:10.37,2013-04-09 03:04:00,
2013-04-08 23:05:00,64.7,32.5,30.08,SE,137,0.0,0.0,30,0.00,CLR,,0.00,WeatherDisplay:10.37,2013-04-09 03:05:00,
2013-04-08 23:06:00,64.7,32.5,30.08,SE,137,0.0,0.0,30,0.00,CLR,,0.00,WeatherDisplay:10.37,2013-04-09 03:06:00,
2013-04-08 23:08:00,64.5,32.4,30.08,SE,137,0.0,0.0,30,0.00,CLR,,0.00,WeatherDisplay:10.37,2013-04-09 03:08:00,
2013-04-08 23:09:00,64.2,32.1,30.08,SE,137,0.0,0.0,30,0.00,CLR,,0.00,WeatherDisplay:10.37,2013-04-09 03:09:00,
2013-04-08 23:10:00,64.4,32.3,30.08,SE,137,0.0,0.0,30,0.00,CLR,,0.00,WeatherDisplay:10.37,2013-04-09 03:10:00,
2013-04-08 23:11:00,64.7,32.5,30.08,SE,137,0.0,0.0,30,0.00,CLR,,0.00,WeatherDisplay:10.37,2013-04-09 03:11:00,
2013-04-08 23:13:00,65.0,31.9,30.08,SE,137,0.0,0.0,29,0.00,CLR,,0.00,WeatherDisplay:10.37,2013-04-09 03:13:00,
2013-04-08 23:14:00,65.0,31.1,30.08,SE,137,0.0,0.0,28,0.00,CLR,,0.00,WeatherDisplay:10.37,2013-04-09 03:14:00,
2013-04-08 23:15:00,65.6,31.6,30.08,SE,137,0.0,0.0,28,0.00,CLR,,0.00,WeatherDisplay:10.37,2013-04-09 03:15:00,
2013-04-08 23:16:00,65.4,31.4,30.08,SE,137,0.0,0.0,28,0.00,CLR,,0.00,WeatherDisplay:10.37,2013-04-09 03:16:00,
2013-04-08 23:18:00,65.4,30.5,30.08,SE,137,0.0,0.0,27,0.00,CLR,,0.00,WeatherDisplay:10.37,2013-04-09 03:18:00,
2013-04-08 23:20:00,65.6,30.7,30.09,SE,137,0.0,0.0,27,0.00,CLR,,0.00,WeatherDisplay:10.37,2013-04-09 03:20:00,
2013-04-08 23:21:00,65.6,30.7,30.09,SE,137,0.0,0.0,27,0.00,CLR,,0.00,WeatherDisplay:10.37,2013-04-09 03:21:00,
2013-04-08 23:22:00,65.2,30.3,30.08,SE,137,0.0,0.0,27,0.00,CLR,,0.00,WeatherDisplay:10.37,2013-04-09 03:22:00,
2013-04-08 23:23:00,65.5,31.5,30.08,SE,137,0.0,0.0,28,0.00,CLR,,0.00,WeatherDisplay:10.37,2013-04-09 03:23:00,
2013-04-08 23:25:00,65.4,30.5,30.08,SE,137,0.0,0.0,27,0.00,CLR,,0.00,WeatherDisplay:10.37,2013-04-09 03:25:00,
2013-04-08 23:26:00,65.6,30.7,30.08,SE,137,0.0,0.0,27,0.00,CLR,,0.00,WeatherDisplay:10.37,2013-04-09 03:26:00,
2013-04-08 23:27:00,65.6,30.7,30.08,SE,137,0.0,0.0,27,0.00,CLR,,0.00,WeatherDisplay:10.37,2013-04-09 03:27:00,
2013-04-08 23:29:00,66.0,30.1,30.09,SE,137,0.0,0.0,26,0.00,CLR,,0.00,WeatherDisplay:10.37,2013-04-09 03:29:00,
2013-04-08 23:31:00,65.9,30.0,30.09,SE,137,0.0,0.0,26,0.00,CLR,,0.00,WeatherDisplay:10.37,2013-04-09 03:31:00,
2013-04-08 23:32:00,66.0,30.1,30.09,SE,137,0.0,0.0,26,0.00,CLR,,0.00,WeatherDisplay:10.37,2013-04-09 03:32:00,
2013-04-08 23:34:00,65.4,29.6,30.09,SE,137,0.0,0.0,26,0.00,CLR,,0.00,WeatherDisplay:10.37,2013-04-09 03:34:00,
2013-04-08 23:37:00,65.9,30.0,30.09,SE,137,0.0,0.0,26,0.00,CLR,,0.00,WeatherDisplay:10.37,2013-04-09 03:37:00,
2013-04-08 23:38:00,65.8,29.9,30.09,SE,137,0.0,0.0,26,0.00,CLR,,0.00,WeatherDisplay:10.37,2013-04-09 03:38:00,
2013-04-08 23:40:00,66.0,30.1,30.09,SE,137,0.0,0.0,26,0.00,CLR,,0.00,WeatherDisplay:10.37,2013-04-09 03:40:00,
2013-04-08 23:42:00,65.8,29.9,30.09,SE,137,0.0,0.0,26,0.00,CLR,,0.00,WeatherDisplay:10.37,2013-04-09 03:42:00,
2013-04-08 23:43:00,66.0,30.1,30.09,SE,137,0.0,0.0,26,0.00,CLR,,0.00,WeatherDisplay:10.37,2013-04-09 03:43:00,
2013-04-08 23:45:00,66.0,30.1,30.09,SE,137,0.0,0.0,26,0.00,CLR,,0.00,WeatherDisplay:10.37,2013-04-09 03:45:00,
2013-04-08 23:48:00,65.6,29.8,30.09,SE,137,0.0,0.0,26,0.00,CLR,,0.00,WeatherDisplay:10.37,2013-04-09 03:48:00,
2013-04-08 23:50:00,65.5,30.6,30.09,SE,137,0.0,0.0,27,0.00,CLR,,0.00,WeatherDisplay:10.37,2013-04-09 03:50:00,
2013-04-08 23:53:00,65.3,31.3,30.09,SE,137,0.0,0.0,28,0.00,CLR,,0.00,WeatherDisplay:10.37,2013-04-09 03:53:00,
2013-04-08 23:55:00,64.9,31.0,30.09,SE,137,0.0,0.0,28,0.00,CLR,,0.00,WeatherDisplay:10.37,2013-04-09 03:55:00,
2013-04-08 23:58:00,65.2,32.1,30.09,SE,137,0.0,0.0,29,0.00,CLR,,0.00,WeatherDisplay:10.37,2013-04-09 03:58:00,